<?xml version="1.0" encoding="UTF-8" standalone="no" ?>
<gpx xmlns="http://www.topografix.com/GPX/1/1" xmlns:xsi="http://www.w3.org/2001/XMLSchema-instance" xsi:schemaLocation="http://www.topografix.com/GPX/1/1 http://www.topografix.com/GPX/1/1/gpx.xsd" version="1.1" creator="VisuGPX - https://www.visugpx.com">
  <metadata>
    <name>83-M-Saint Antonin</name>
    <desc><![CDATA[83-M-Saint Antonin : circuit de Mentone à Peneyron]]></desc>
  </metadata>
  <trk>
    <name><![CDATA[2017-01-04-M-St antonin]]></name>
    <trkseg>
      <trkpt lat="43.52503" lon="6.28247">
        <ele>296.4</ele>
        <time>2017-01-04T12:51:51Z</time>
      </trkpt>
      <trkpt lat="43.52503" lon="6.28247">
        <ele>296.4</ele>
        <time>2017-01-04T12:51:52Z</time>
      </trkpt>
      <trkpt lat="43.525" lon="6.28258">
        <ele>296.6</ele>
        <time>2017-01-04T12:55:01Z</time>
      </trkpt>
      <trkpt lat="43.52509" lon="6.28257">
        <ele>296.9</ele>
        <time>2017-01-04T12:56:08Z</time>
      </trkpt>
      <trkpt lat="43.52518" lon="6.28259">
        <ele>297.3</ele>
        <time>2017-01-04T12:56:30Z</time>
      </trkpt>
      <trkpt lat="43.52528" lon="6.28257">
        <ele>297.6</ele>
        <time>2017-01-04T12:56:41Z</time>
      </trkpt>
      <trkpt lat="43.52535" lon="6.28249">
        <ele>296.8</ele>
        <time>2017-01-04T12:56:53Z</time>
      </trkpt>
      <trkpt lat="43.52545" lon="6.28252">
        <ele>297</ele>
        <time>2017-01-04T12:57:08Z</time>
      </trkpt>
      <trkpt lat="43.52551" lon="6.28262">
        <ele>297.2</ele>
        <time>2017-01-04T12:57:18Z</time>
      </trkpt>
      <trkpt lat="43.52556" lon="6.28274">
        <ele>297.3</ele>
        <time>2017-01-04T12:57:28Z</time>
      </trkpt>
      <trkpt lat="43.52562" lon="6.28285">
        <ele>297.1</ele>
        <time>2017-01-04T12:57:37Z</time>
      </trkpt>
      <trkpt lat="43.52571" lon="6.28281">
        <ele>297</ele>
        <time>2017-01-04T12:57:47Z</time>
      </trkpt>
      <trkpt lat="43.52578" lon="6.28272">
        <ele>296.9</ele>
        <time>2017-01-04T12:57:58Z</time>
      </trkpt>
      <trkpt lat="43.52586" lon="6.28263">
        <ele>296.7</ele>
        <time>2017-01-04T12:58:07Z</time>
      </trkpt>
      <trkpt lat="43.52594" lon="6.28256">
        <ele>297</ele>
        <time>2017-01-04T12:58:15Z</time>
      </trkpt>
      <trkpt lat="43.52601" lon="6.28247">
        <ele>297.2</ele>
        <time>2017-01-04T12:58:23Z</time>
      </trkpt>
      <trkpt lat="43.52608" lon="6.28238">
        <ele>297.6</ele>
        <time>2017-01-04T12:58:31Z</time>
      </trkpt>
      <trkpt lat="43.52616" lon="6.2823">
        <ele>297.6</ele>
        <time>2017-01-04T12:58:39Z</time>
      </trkpt>
      <trkpt lat="43.52624" lon="6.28221">
        <ele>297.7</ele>
        <time>2017-01-04T12:58:47Z</time>
      </trkpt>
      <trkpt lat="43.52632" lon="6.28213">
        <ele>297.6</ele>
        <time>2017-01-04T12:58:55Z</time>
      </trkpt>
      <trkpt lat="43.5264" lon="6.28205">
        <ele>297.6</ele>
        <time>2017-01-04T12:59:03Z</time>
      </trkpt>
      <trkpt lat="43.52646" lon="6.28194">
        <ele>297.6</ele>
        <time>2017-01-04T12:59:11Z</time>
      </trkpt>
      <trkpt lat="43.52652" lon="6.28185">
        <ele>297.7</ele>
        <time>2017-01-04T12:59:19Z</time>
      </trkpt>
      <trkpt lat="43.52656" lon="6.28173">
        <ele>297.8</ele>
        <time>2017-01-04T12:59:28Z</time>
      </trkpt>
      <trkpt lat="43.52661" lon="6.28161">
        <ele>297.7</ele>
        <time>2017-01-04T12:59:36Z</time>
      </trkpt>
      <trkpt lat="43.52663" lon="6.28149">
        <ele>298.2</ele>
        <time>2017-01-04T12:59:44Z</time>
      </trkpt>
      <trkpt lat="43.52667" lon="6.28137">
        <ele>299</ele>
        <time>2017-01-04T12:59:53Z</time>
      </trkpt>
      <trkpt lat="43.52671" lon="6.28125">
        <ele>300.1</ele>
        <time>2017-01-04T13:00:02Z</time>
      </trkpt>
      <trkpt lat="43.52674" lon="6.28112">
        <ele>300.7</ele>
        <time>2017-01-04T13:00:11Z</time>
      </trkpt>
      <trkpt lat="43.52678" lon="6.28101">
        <ele>301.6</ele>
        <time>2017-01-04T13:00:20Z</time>
      </trkpt>
      <trkpt lat="43.52683" lon="6.2809">
        <ele>302.9</ele>
        <time>2017-01-04T13:00:27Z</time>
      </trkpt>
      <trkpt lat="43.52688" lon="6.28078">
        <ele>304.2</ele>
        <time>2017-01-04T13:00:34Z</time>
      </trkpt>
      <trkpt lat="43.52693" lon="6.28066">
        <ele>304.4</ele>
        <time>2017-01-04T13:00:42Z</time>
      </trkpt>
      <trkpt lat="43.52698" lon="6.28057">
        <ele>304.5</ele>
        <time>2017-01-04T13:00:49Z</time>
      </trkpt>
      <trkpt lat="43.52703" lon="6.28046">
        <ele>304</ele>
        <time>2017-01-04T13:00:56Z</time>
      </trkpt>
      <trkpt lat="43.52708" lon="6.28036">
        <ele>303.4</ele>
        <time>2017-01-04T13:01:03Z</time>
      </trkpt>
      <trkpt lat="43.52713" lon="6.28025">
        <ele>302.5</ele>
        <time>2017-01-04T13:01:11Z</time>
      </trkpt>
      <trkpt lat="43.52718" lon="6.28013">
        <ele>301.2</ele>
        <time>2017-01-04T13:01:21Z</time>
      </trkpt>
      <trkpt lat="43.52724" lon="6.28003">
        <ele>299.4</ele>
        <time>2017-01-04T13:01:29Z</time>
      </trkpt>
      <trkpt lat="43.52729" lon="6.27991">
        <ele>297.6</ele>
        <time>2017-01-04T13:01:40Z</time>
      </trkpt>
      <trkpt lat="43.52738" lon="6.27985">
        <ele>295.9</ele>
        <time>2017-01-04T13:01:48Z</time>
      </trkpt>
      <trkpt lat="43.52747" lon="6.27983">
        <ele>294.4</ele>
        <time>2017-01-04T13:01:54Z</time>
      </trkpt>
      <trkpt lat="43.52757" lon="6.27981">
        <ele>293.5</ele>
        <time>2017-01-04T13:02:01Z</time>
      </trkpt>
      <trkpt lat="43.52767" lon="6.27978">
        <ele>292.5</ele>
        <time>2017-01-04T13:02:09Z</time>
      </trkpt>
      <trkpt lat="43.52776" lon="6.27977">
        <ele>292.2</ele>
        <time>2017-01-04T13:02:17Z</time>
      </trkpt>
      <trkpt lat="43.52785" lon="6.27974">
        <ele>291.8</ele>
        <time>2017-01-04T13:02:25Z</time>
      </trkpt>
      <trkpt lat="43.52794" lon="6.27972">
        <ele>291.2</ele>
        <time>2017-01-04T13:02:33Z</time>
      </trkpt>
      <trkpt lat="43.52803" lon="6.2797">
        <ele>290.3</ele>
        <time>2017-01-04T13:02:41Z</time>
      </trkpt>
      <trkpt lat="43.52813" lon="6.27968">
        <ele>289.7</ele>
        <time>2017-01-04T13:02:49Z</time>
      </trkpt>
      <trkpt lat="43.52822" lon="6.27966">
        <ele>289.6</ele>
        <time>2017-01-04T13:02:57Z</time>
      </trkpt>
      <trkpt lat="43.52831" lon="6.27964">
        <ele>289.6</ele>
        <time>2017-01-04T13:03:05Z</time>
      </trkpt>
      <trkpt lat="43.5284" lon="6.27961">
        <ele>289.4</ele>
        <time>2017-01-04T13:03:13Z</time>
      </trkpt>
      <trkpt lat="43.5285" lon="6.27958">
        <ele>289.7</ele>
        <time>2017-01-04T13:03:21Z</time>
      </trkpt>
      <trkpt lat="43.52856" lon="6.27948">
        <ele>289.8</ele>
        <time>2017-01-04T13:03:30Z</time>
      </trkpt>
      <trkpt lat="43.52857" lon="6.27934">
        <ele>289.8</ele>
        <time>2017-01-04T13:03:38Z</time>
      </trkpt>
      <trkpt lat="43.52856" lon="6.27921">
        <ele>290.6</ele>
        <time>2017-01-04T13:03:46Z</time>
      </trkpt>
      <trkpt lat="43.52853" lon="6.27909">
        <ele>290.7</ele>
        <time>2017-01-04T13:03:54Z</time>
      </trkpt>
      <trkpt lat="43.52851" lon="6.27896">
        <ele>290.3</ele>
        <time>2017-01-04T13:04:03Z</time>
      </trkpt>
      <trkpt lat="43.52851" lon="6.27882">
        <ele>290.4</ele>
        <time>2017-01-04T13:04:12Z</time>
      </trkpt>
      <trkpt lat="43.52851" lon="6.2787">
        <ele>290.4</ele>
        <time>2017-01-04T13:04:20Z</time>
      </trkpt>
      <trkpt lat="43.52851" lon="6.27856">
        <ele>290.7</ele>
        <time>2017-01-04T13:04:30Z</time>
      </trkpt>
      <trkpt lat="43.52852" lon="6.27843">
        <ele>290.8</ele>
        <time>2017-01-04T13:04:39Z</time>
      </trkpt>
      <trkpt lat="43.52849" lon="6.27831">
        <ele>291.4</ele>
        <time>2017-01-04T13:05:14Z</time>
      </trkpt>
      <trkpt lat="43.52853" lon="6.2782">
        <ele>291.6</ele>
        <time>2017-01-04T13:05:28Z</time>
      </trkpt>
      <trkpt lat="43.52858" lon="6.27809">
        <ele>291.1</ele>
        <time>2017-01-04T13:05:39Z</time>
      </trkpt>
      <trkpt lat="43.52861" lon="6.27796">
        <ele>290.9</ele>
        <time>2017-01-04T13:05:48Z</time>
      </trkpt>
      <trkpt lat="43.52866" lon="6.27784">
        <ele>290.5</ele>
        <time>2017-01-04T13:05:57Z</time>
      </trkpt>
      <trkpt lat="43.5287" lon="6.27772">
        <ele>290.8</ele>
        <time>2017-01-04T13:06:05Z</time>
      </trkpt>
      <trkpt lat="43.52873" lon="6.2776">
        <ele>291.4</ele>
        <time>2017-01-04T13:06:17Z</time>
      </trkpt>
      <trkpt lat="43.52879" lon="6.27749">
        <ele>291.4</ele>
        <time>2017-01-04T13:06:24Z</time>
      </trkpt>
      <trkpt lat="43.52884" lon="6.27737">
        <ele>291.8</ele>
        <time>2017-01-04T13:06:32Z</time>
      </trkpt>
      <trkpt lat="43.52886" lon="6.27724">
        <ele>292.4</ele>
        <time>2017-01-04T13:06:41Z</time>
      </trkpt>
      <trkpt lat="43.5289" lon="6.27713">
        <ele>292.4</ele>
        <time>2017-01-04T13:06:48Z</time>
      </trkpt>
      <trkpt lat="43.52893" lon="6.27701">
        <ele>292</ele>
        <time>2017-01-04T13:06:57Z</time>
      </trkpt>
      <trkpt lat="43.52897" lon="6.27689">
        <ele>292</ele>
        <time>2017-01-04T13:07:07Z</time>
      </trkpt>
      <trkpt lat="43.529" lon="6.27677">
        <ele>292.8</ele>
        <time>2017-01-04T13:07:17Z</time>
      </trkpt>
      <trkpt lat="43.52906" lon="6.27666">
        <ele>292.2</ele>
        <time>2017-01-04T13:07:28Z</time>
      </trkpt>
      <trkpt lat="43.52914" lon="6.27657">
        <ele>291.6</ele>
        <time>2017-01-04T13:07:38Z</time>
      </trkpt>
      <trkpt lat="43.5292" lon="6.27647">
        <ele>291.6</ele>
        <time>2017-01-04T13:07:46Z</time>
      </trkpt>
      <trkpt lat="43.52925" lon="6.27637">
        <ele>291.5</ele>
        <time>2017-01-04T13:07:54Z</time>
      </trkpt>
      <trkpt lat="43.52931" lon="6.27627">
        <ele>291</ele>
        <time>2017-01-04T13:08:02Z</time>
      </trkpt>
      <trkpt lat="43.52938" lon="6.27617">
        <ele>290.6</ele>
        <time>2017-01-04T13:08:11Z</time>
      </trkpt>
      <trkpt lat="43.52944" lon="6.27606">
        <ele>290.4</ele>
        <time>2017-01-04T13:08:21Z</time>
      </trkpt>
      <trkpt lat="43.5295" lon="6.27596">
        <ele>290</ele>
        <time>2017-01-04T13:08:30Z</time>
      </trkpt>
      <trkpt lat="43.52957" lon="6.27586">
        <ele>290.1</ele>
        <time>2017-01-04T13:08:39Z</time>
      </trkpt>
      <trkpt lat="43.52964" lon="6.27576">
        <ele>290.3</ele>
        <time>2017-01-04T13:08:48Z</time>
      </trkpt>
      <trkpt lat="43.52971" lon="6.27567">
        <ele>290.4</ele>
        <time>2017-01-04T13:08:56Z</time>
      </trkpt>
      <trkpt lat="43.52978" lon="6.27557">
        <ele>290.3</ele>
        <time>2017-01-04T13:09:03Z</time>
      </trkpt>
      <trkpt lat="43.52984" lon="6.27547">
        <ele>290.1</ele>
        <time>2017-01-04T13:09:10Z</time>
      </trkpt>
      <trkpt lat="43.52989" lon="6.27537">
        <ele>289.7</ele>
        <time>2017-01-04T13:09:19Z</time>
      </trkpt>
      <trkpt lat="43.52995" lon="6.27526">
        <ele>289.3</ele>
        <time>2017-01-04T13:09:28Z</time>
      </trkpt>
      <trkpt lat="43.53002" lon="6.27519">
        <ele>288.9</ele>
        <time>2017-01-04T13:09:38Z</time>
      </trkpt>
      <trkpt lat="43.53009" lon="6.27509">
        <ele>288.1</ele>
        <time>2017-01-04T13:09:47Z</time>
      </trkpt>
      <trkpt lat="43.53017" lon="6.27501">
        <ele>287.8</ele>
        <time>2017-01-04T13:09:56Z</time>
      </trkpt>
      <trkpt lat="43.53024" lon="6.27493">
        <ele>286.9</ele>
        <time>2017-01-04T13:10:05Z</time>
      </trkpt>
      <trkpt lat="43.53032" lon="6.27485">
        <ele>286.4</ele>
        <time>2017-01-04T13:10:14Z</time>
      </trkpt>
      <trkpt lat="43.53038" lon="6.27474">
        <ele>286.2</ele>
        <time>2017-01-04T13:10:26Z</time>
      </trkpt>
      <trkpt lat="43.53044" lon="6.27464">
        <ele>285.9</ele>
        <time>2017-01-04T13:10:35Z</time>
      </trkpt>
      <trkpt lat="43.53052" lon="6.27455">
        <ele>285.6</ele>
        <time>2017-01-04T13:10:45Z</time>
      </trkpt>
      <trkpt lat="43.53058" lon="6.27445">
        <ele>284.7</ele>
        <time>2017-01-04T13:10:53Z</time>
      </trkpt>
      <trkpt lat="43.53065" lon="6.27435">
        <ele>284.1</ele>
        <time>2017-01-04T13:11:02Z</time>
      </trkpt>
      <trkpt lat="43.53073" lon="6.27428">
        <ele>283.5</ele>
        <time>2017-01-04T13:11:10Z</time>
      </trkpt>
      <trkpt lat="43.53081" lon="6.27421">
        <ele>283.3</ele>
        <time>2017-01-04T13:11:17Z</time>
      </trkpt>
      <trkpt lat="43.53087" lon="6.2741">
        <ele>282.9</ele>
        <time>2017-01-04T13:11:27Z</time>
      </trkpt>
      <trkpt lat="43.53094" lon="6.274">
        <ele>282.5</ele>
        <time>2017-01-04T13:11:38Z</time>
      </trkpt>
      <trkpt lat="43.531" lon="6.27391">
        <ele>282.2</ele>
        <time>2017-01-04T13:11:46Z</time>
      </trkpt>
      <trkpt lat="43.53105" lon="6.27379">
        <ele>281.6</ele>
        <time>2017-01-04T13:11:57Z</time>
      </trkpt>
      <trkpt lat="43.53111" lon="6.27368">
        <ele>281.1</ele>
        <time>2017-01-04T13:12:07Z</time>
      </trkpt>
      <trkpt lat="43.53117" lon="6.27357">
        <ele>280.7</ele>
        <time>2017-01-04T13:12:15Z</time>
      </trkpt>
      <trkpt lat="43.53123" lon="6.27348">
        <ele>280.3</ele>
        <time>2017-01-04T13:12:22Z</time>
      </trkpt>
      <trkpt lat="43.53129" lon="6.27337">
        <ele>279.2</ele>
        <time>2017-01-04T13:12:31Z</time>
      </trkpt>
      <trkpt lat="43.53135" lon="6.27326">
        <ele>278.3</ele>
        <time>2017-01-04T13:12:40Z</time>
      </trkpt>
      <trkpt lat="43.53139" lon="6.27313">
        <ele>277.7</ele>
        <time>2017-01-04T13:12:51Z</time>
      </trkpt>
      <trkpt lat="43.53142" lon="6.27301">
        <ele>277.5</ele>
        <time>2017-01-04T13:13:01Z</time>
      </trkpt>
      <trkpt lat="43.53145" lon="6.27289">
        <ele>276.9</ele>
        <time>2017-01-04T13:13:08Z</time>
      </trkpt>
      <trkpt lat="43.53149" lon="6.27278">
        <ele>276.1</ele>
        <time>2017-01-04T13:13:18Z</time>
      </trkpt>
      <trkpt lat="43.5315" lon="6.27265">
        <ele>275.3</ele>
        <time>2017-01-04T13:13:29Z</time>
      </trkpt>
      <trkpt lat="43.53151" lon="6.27252">
        <ele>274.7</ele>
        <time>2017-01-04T13:13:42Z</time>
      </trkpt>
      <trkpt lat="43.53155" lon="6.2724">
        <ele>273.9</ele>
        <time>2017-01-04T13:13:51Z</time>
      </trkpt>
      <trkpt lat="43.53158" lon="6.27228">
        <ele>273.5</ele>
        <time>2017-01-04T13:13:58Z</time>
      </trkpt>
      <trkpt lat="43.53161" lon="6.27215">
        <ele>273.2</ele>
        <time>2017-01-04T13:14:07Z</time>
      </trkpt>
      <trkpt lat="43.53162" lon="6.27202">
        <ele>272.6</ele>
        <time>2017-01-04T13:14:17Z</time>
      </trkpt>
      <trkpt lat="43.53164" lon="6.27189">
        <ele>272.1</ele>
        <time>2017-01-04T13:14:25Z</time>
      </trkpt>
      <trkpt lat="43.53165" lon="6.27176">
        <ele>270.9</ele>
        <time>2017-01-04T13:14:35Z</time>
      </trkpt>
      <trkpt lat="43.53163" lon="6.27163">
        <ele>270.5</ele>
        <time>2017-01-04T13:14:45Z</time>
      </trkpt>
      <trkpt lat="43.53167" lon="6.27149">
        <ele>270.1</ele>
        <time>2017-01-04T13:14:52Z</time>
      </trkpt>
      <trkpt lat="43.53168" lon="6.27136">
        <ele>269.9</ele>
        <time>2017-01-04T13:14:59Z</time>
      </trkpt>
      <trkpt lat="43.53171" lon="6.27123">
        <ele>270.2</ele>
        <time>2017-01-04T13:15:09Z</time>
      </trkpt>
      <trkpt lat="43.53176" lon="6.27112">
        <ele>269.9</ele>
        <time>2017-01-04T13:15:15Z</time>
      </trkpt>
      <trkpt lat="43.5318" lon="6.271">
        <ele>269.6</ele>
        <time>2017-01-04T13:15:23Z</time>
      </trkpt>
      <trkpt lat="43.53182" lon="6.27087">
        <ele>269.2</ele>
        <time>2017-01-04T13:15:31Z</time>
      </trkpt>
      <trkpt lat="43.53178" lon="6.27075">
        <ele>268.5</ele>
        <time>2017-01-04T13:15:41Z</time>
      </trkpt>
      <trkpt lat="43.53176" lon="6.27062">
        <ele>267.6</ele>
        <time>2017-01-04T13:15:51Z</time>
      </trkpt>
      <trkpt lat="43.53177" lon="6.27049">
        <ele>267.1</ele>
        <time>2017-01-04T13:15:58Z</time>
      </trkpt>
      <trkpt lat="43.53176" lon="6.27035">
        <ele>266.8</ele>
        <time>2017-01-04T13:16:05Z</time>
      </trkpt>
      <trkpt lat="43.53175" lon="6.27022">
        <ele>266.2</ele>
        <time>2017-01-04T13:16:14Z</time>
      </trkpt>
      <trkpt lat="43.53175" lon="6.27009">
        <ele>265.3</ele>
        <time>2017-01-04T13:16:23Z</time>
      </trkpt>
      <trkpt lat="43.53173" lon="6.26996">
        <ele>264.8</ele>
        <time>2017-01-04T13:16:30Z</time>
      </trkpt>
      <trkpt lat="43.53171" lon="6.26983">
        <ele>263.7</ele>
        <time>2017-01-04T13:16:39Z</time>
      </trkpt>
      <trkpt lat="43.53171" lon="6.26969">
        <ele>263.2</ele>
        <time>2017-01-04T13:16:47Z</time>
      </trkpt>
      <trkpt lat="43.53167" lon="6.26958">
        <ele>262.2</ele>
        <time>2017-01-04T13:16:58Z</time>
      </trkpt>
      <trkpt lat="43.53164" lon="6.26945">
        <ele>260.9</ele>
        <time>2017-01-04T13:17:08Z</time>
      </trkpt>
      <trkpt lat="43.53161" lon="6.26933">
        <ele>259.4</ele>
        <time>2017-01-04T13:17:17Z</time>
      </trkpt>
      <trkpt lat="43.5316" lon="6.26921">
        <ele>258.2</ele>
        <time>2017-01-04T13:17:27Z</time>
      </trkpt>
      <trkpt lat="43.53162" lon="6.26908">
        <ele>256.6</ele>
        <time>2017-01-04T13:17:38Z</time>
      </trkpt>
      <trkpt lat="43.53162" lon="6.26895">
        <ele>255.5</ele>
        <time>2017-01-04T13:17:55Z</time>
      </trkpt>
      <trkpt lat="43.5316" lon="6.26882">
        <ele>255.3</ele>
        <time>2017-01-04T13:18:06Z</time>
      </trkpt>
      <trkpt lat="43.53162" lon="6.26869">
        <ele>255.4</ele>
        <time>2017-01-04T13:18:16Z</time>
      </trkpt>
      <trkpt lat="43.53161" lon="6.26857">
        <ele>255.5</ele>
        <time>2017-01-04T13:18:24Z</time>
      </trkpt>
      <trkpt lat="43.53161" lon="6.26844">
        <ele>255.3</ele>
        <time>2017-01-04T13:18:33Z</time>
      </trkpt>
      <trkpt lat="43.5316" lon="6.2683">
        <ele>255.9</ele>
        <time>2017-01-04T13:18:43Z</time>
      </trkpt>
      <trkpt lat="43.53162" lon="6.26817">
        <ele>256.2</ele>
        <time>2017-01-04T13:18:52Z</time>
      </trkpt>
      <trkpt lat="43.53166" lon="6.26805">
        <ele>255.7</ele>
        <time>2017-01-04T13:19:02Z</time>
      </trkpt>
      <trkpt lat="43.53171" lon="6.26794">
        <ele>255.1</ele>
        <time>2017-01-04T13:19:12Z</time>
      </trkpt>
      <trkpt lat="43.53176" lon="6.26782">
        <ele>254.7</ele>
        <time>2017-01-04T13:19:20Z</time>
      </trkpt>
      <trkpt lat="43.53178" lon="6.26769">
        <ele>254.4</ele>
        <time>2017-01-04T13:19:28Z</time>
      </trkpt>
      <trkpt lat="43.53179" lon="6.26756">
        <ele>254.2</ele>
        <time>2017-01-04T13:19:38Z</time>
      </trkpt>
      <trkpt lat="43.53176" lon="6.26743">
        <ele>253.7</ele>
        <time>2017-01-04T13:19:51Z</time>
      </trkpt>
      <trkpt lat="43.53177" lon="6.2673">
        <ele>253.5</ele>
        <time>2017-01-04T13:19:59Z</time>
      </trkpt>
      <trkpt lat="43.53175" lon="6.26716">
        <ele>253.3</ele>
        <time>2017-01-04T13:20:08Z</time>
      </trkpt>
      <trkpt lat="43.53173" lon="6.26704">
        <ele>253.3</ele>
        <time>2017-01-04T13:20:17Z</time>
      </trkpt>
      <trkpt lat="43.5317" lon="6.26692">
        <ele>252.8</ele>
        <time>2017-01-04T13:20:26Z</time>
      </trkpt>
      <trkpt lat="43.53164" lon="6.26682">
        <ele>252.9</ele>
        <time>2017-01-04T13:20:34Z</time>
      </trkpt>
      <trkpt lat="43.53157" lon="6.26673">
        <ele>252.7</ele>
        <time>2017-01-04T13:20:43Z</time>
      </trkpt>
      <trkpt lat="43.5315" lon="6.26666">
        <ele>252.4</ele>
        <time>2017-01-04T13:20:50Z</time>
      </trkpt>
      <trkpt lat="43.53142" lon="6.26656">
        <ele>251.4</ele>
        <time>2017-01-04T13:20:58Z</time>
      </trkpt>
      <trkpt lat="43.53135" lon="6.26647">
        <ele>250.6</ele>
        <time>2017-01-04T13:21:06Z</time>
      </trkpt>
      <trkpt lat="43.53129" lon="6.26636">
        <ele>250.2</ele>
        <time>2017-01-04T13:21:14Z</time>
      </trkpt>
      <trkpt lat="43.53124" lon="6.26625">
        <ele>249.8</ele>
        <time>2017-01-04T13:21:22Z</time>
      </trkpt>
      <trkpt lat="43.53121" lon="6.26613">
        <ele>249.5</ele>
        <time>2017-01-04T13:21:31Z</time>
      </trkpt>
      <trkpt lat="43.53117" lon="6.26602">
        <ele>249.7</ele>
        <time>2017-01-04T13:21:39Z</time>
      </trkpt>
      <trkpt lat="43.53114" lon="6.26588">
        <ele>249.6</ele>
        <time>2017-01-04T13:21:48Z</time>
      </trkpt>
      <trkpt lat="43.53112" lon="6.26575">
        <ele>249.2</ele>
        <time>2017-01-04T13:21:56Z</time>
      </trkpt>
      <trkpt lat="43.5311" lon="6.26562">
        <ele>249.2</ele>
        <time>2017-01-04T13:22:04Z</time>
      </trkpt>
      <trkpt lat="43.53108" lon="6.26549">
        <ele>249.6</ele>
        <time>2017-01-04T13:22:12Z</time>
      </trkpt>
      <trkpt lat="43.53107" lon="6.26537">
        <ele>249.8</ele>
        <time>2017-01-04T13:22:20Z</time>
      </trkpt>
      <trkpt lat="43.53107" lon="6.26524">
        <ele>250.1</ele>
        <time>2017-01-04T13:22:29Z</time>
      </trkpt>
      <trkpt lat="43.53114" lon="6.26514">
        <ele>250.3</ele>
        <time>2017-01-04T13:22:37Z</time>
      </trkpt>
      <trkpt lat="43.53121" lon="6.26506">
        <ele>250.6</ele>
        <time>2017-01-04T13:22:45Z</time>
      </trkpt>
      <trkpt lat="43.53122" lon="6.26494">
        <ele>252.1</ele>
        <time>2017-01-04T13:24:22Z</time>
      </trkpt>
      <trkpt lat="43.5313" lon="6.26486">
        <ele>252.3</ele>
        <time>2017-01-04T13:27:46Z</time>
      </trkpt>
      <trkpt lat="43.53138" lon="6.26478">
        <ele>251.8</ele>
        <time>2017-01-04T13:27:56Z</time>
      </trkpt>
      <trkpt lat="43.53145" lon="6.26469">
        <ele>251.4</ele>
        <time>2017-01-04T13:28:04Z</time>
      </trkpt>
      <trkpt lat="43.53152" lon="6.2646">
        <ele>251.1</ele>
        <time>2017-01-04T13:28:12Z</time>
      </trkpt>
      <trkpt lat="43.53159" lon="6.26451">
        <ele>250.8</ele>
        <time>2017-01-04T13:28:20Z</time>
      </trkpt>
      <trkpt lat="43.53164" lon="6.26441">
        <ele>251.2</ele>
        <time>2017-01-04T13:28:28Z</time>
      </trkpt>
      <trkpt lat="43.5317" lon="6.2643">
        <ele>251.6</ele>
        <time>2017-01-04T13:28:36Z</time>
      </trkpt>
      <trkpt lat="43.53174" lon="6.26418">
        <ele>251.6</ele>
        <time>2017-01-04T13:28:44Z</time>
      </trkpt>
      <trkpt lat="43.53178" lon="6.26406">
        <ele>251.6</ele>
        <time>2017-01-04T13:28:52Z</time>
      </trkpt>
      <trkpt lat="43.53181" lon="6.26393">
        <ele>251.9</ele>
        <time>2017-01-04T13:29:01Z</time>
      </trkpt>
      <trkpt lat="43.53184" lon="6.26381">
        <ele>251.5</ele>
        <time>2017-01-04T13:29:09Z</time>
      </trkpt>
      <trkpt lat="43.53186" lon="6.26368">
        <ele>251.5</ele>
        <time>2017-01-04T13:29:17Z</time>
      </trkpt>
      <trkpt lat="43.53185" lon="6.26355">
        <ele>251.2</ele>
        <time>2017-01-04T13:29:29Z</time>
      </trkpt>
      <trkpt lat="43.53186" lon="6.26341">
        <ele>251.9</ele>
        <time>2017-01-04T13:29:39Z</time>
      </trkpt>
      <trkpt lat="43.53183" lon="6.26328">
        <ele>252.8</ele>
        <time>2017-01-04T13:29:47Z</time>
      </trkpt>
      <trkpt lat="43.53182" lon="6.26316">
        <ele>252.7</ele>
        <time>2017-01-04T13:29:54Z</time>
      </trkpt>
      <trkpt lat="43.53182" lon="6.26302">
        <ele>252.7</ele>
        <time>2017-01-04T13:30:01Z</time>
      </trkpt>
      <trkpt lat="43.53183" lon="6.26288">
        <ele>252.8</ele>
        <time>2017-01-04T13:30:08Z</time>
      </trkpt>
      <trkpt lat="43.53184" lon="6.26274">
        <ele>252.6</ele>
        <time>2017-01-04T13:30:15Z</time>
      </trkpt>
      <trkpt lat="43.53183" lon="6.2626">
        <ele>252.9</ele>
        <time>2017-01-04T13:30:23Z</time>
      </trkpt>
      <trkpt lat="43.53184" lon="6.26247">
        <ele>252.7</ele>
        <time>2017-01-04T13:30:30Z</time>
      </trkpt>
      <trkpt lat="43.53184" lon="6.26235">
        <ele>252.6</ele>
        <time>2017-01-04T13:30:37Z</time>
      </trkpt>
      <trkpt lat="43.53183" lon="6.26222">
        <ele>252.1</ele>
        <time>2017-01-04T13:30:45Z</time>
      </trkpt>
      <trkpt lat="43.53181" lon="6.26209">
        <ele>251.8</ele>
        <time>2017-01-04T13:30:52Z</time>
      </trkpt>
      <trkpt lat="43.53182" lon="6.26196">
        <ele>251.6</ele>
        <time>2017-01-04T13:30:59Z</time>
      </trkpt>
      <trkpt lat="43.53182" lon="6.26184">
        <ele>251.5</ele>
        <time>2017-01-04T13:31:07Z</time>
      </trkpt>
      <trkpt lat="43.53182" lon="6.2617">
        <ele>251.2</ele>
        <time>2017-01-04T13:31:15Z</time>
      </trkpt>
      <trkpt lat="43.53181" lon="6.26157">
        <ele>250.8</ele>
        <time>2017-01-04T13:31:25Z</time>
      </trkpt>
      <trkpt lat="43.53181" lon="6.26143">
        <ele>250.3</ele>
        <time>2017-01-04T13:31:34Z</time>
      </trkpt>
      <trkpt lat="43.53181" lon="6.2613">
        <ele>250.6</ele>
        <time>2017-01-04T13:31:42Z</time>
      </trkpt>
      <trkpt lat="43.5318" lon="6.26116">
        <ele>251</ele>
        <time>2017-01-04T13:31:49Z</time>
      </trkpt>
      <trkpt lat="43.5318" lon="6.26103">
        <ele>251.4</ele>
        <time>2017-01-04T13:31:56Z</time>
      </trkpt>
      <trkpt lat="43.5318" lon="6.26089">
        <ele>251.5</ele>
        <time>2017-01-04T13:32:07Z</time>
      </trkpt>
      <trkpt lat="43.53179" lon="6.26075">
        <ele>251.6</ele>
        <time>2017-01-04T13:32:16Z</time>
      </trkpt>
      <trkpt lat="43.53177" lon="6.26063">
        <ele>251.5</ele>
        <time>2017-01-04T13:32:23Z</time>
      </trkpt>
      <trkpt lat="43.53177" lon="6.26049">
        <ele>251.2</ele>
        <time>2017-01-04T13:32:31Z</time>
      </trkpt>
      <trkpt lat="43.53177" lon="6.26035">
        <ele>251.1</ele>
        <time>2017-01-04T13:32:39Z</time>
      </trkpt>
      <trkpt lat="43.53178" lon="6.26022">
        <ele>250.8</ele>
        <time>2017-01-04T13:32:47Z</time>
      </trkpt>
      <trkpt lat="43.53177" lon="6.26009">
        <ele>250.6</ele>
        <time>2017-01-04T13:32:55Z</time>
      </trkpt>
      <trkpt lat="43.53178" lon="6.25996">
        <ele>250.4</ele>
        <time>2017-01-04T13:33:03Z</time>
      </trkpt>
      <trkpt lat="43.53177" lon="6.25982">
        <ele>249.6</ele>
        <time>2017-01-04T13:33:12Z</time>
      </trkpt>
      <trkpt lat="43.53176" lon="6.2597">
        <ele>249.3</ele>
        <time>2017-01-04T13:33:20Z</time>
      </trkpt>
      <trkpt lat="43.53174" lon="6.25957">
        <ele>249.3</ele>
        <time>2017-01-04T13:33:28Z</time>
      </trkpt>
      <trkpt lat="43.53173" lon="6.25944">
        <ele>249.1</ele>
        <time>2017-01-04T13:33:36Z</time>
      </trkpt>
      <trkpt lat="43.53171" lon="6.25931">
        <ele>249.4</ele>
        <time>2017-01-04T13:33:44Z</time>
      </trkpt>
      <trkpt lat="43.53173" lon="6.25919">
        <ele>249.6</ele>
        <time>2017-01-04T13:33:59Z</time>
      </trkpt>
      <trkpt lat="43.53168" lon="6.25908">
        <ele>250.3</ele>
        <time>2017-01-04T13:35:33Z</time>
      </trkpt>
      <trkpt lat="43.53166" lon="6.25896">
        <ele>249.9</ele>
        <time>2017-01-04T13:38:15Z</time>
      </trkpt>
      <trkpt lat="43.53164" lon="6.25882">
        <ele>249.6</ele>
        <time>2017-01-04T13:38:25Z</time>
      </trkpt>
      <trkpt lat="43.53163" lon="6.2587">
        <ele>249.6</ele>
        <time>2017-01-04T13:38:32Z</time>
      </trkpt>
      <trkpt lat="43.53161" lon="6.25856">
        <ele>249.4</ele>
        <time>2017-01-04T13:38:40Z</time>
      </trkpt>
      <trkpt lat="43.53158" lon="6.25844">
        <ele>249.1</ele>
        <time>2017-01-04T13:38:48Z</time>
      </trkpt>
      <trkpt lat="43.53157" lon="6.25831">
        <ele>249.3</ele>
        <time>2017-01-04T13:38:56Z</time>
      </trkpt>
      <trkpt lat="43.53156" lon="6.25817">
        <ele>249.5</ele>
        <time>2017-01-04T13:39:03Z</time>
      </trkpt>
      <trkpt lat="43.53154" lon="6.25805">
        <ele>250</ele>
        <time>2017-01-04T13:39:10Z</time>
      </trkpt>
      <trkpt lat="43.53151" lon="6.25792">
        <ele>250.3</ele>
        <time>2017-01-04T13:39:17Z</time>
      </trkpt>
      <trkpt lat="43.5315" lon="6.25779">
        <ele>250.3</ele>
        <time>2017-01-04T13:39:24Z</time>
      </trkpt>
      <trkpt lat="43.53149" lon="6.25766">
        <ele>250.4</ele>
        <time>2017-01-04T13:39:31Z</time>
      </trkpt>
      <trkpt lat="43.53149" lon="6.25754">
        <ele>250.1</ele>
        <time>2017-01-04T13:39:38Z</time>
      </trkpt>
      <trkpt lat="43.5315" lon="6.2574">
        <ele>249.8</ele>
        <time>2017-01-04T13:39:45Z</time>
      </trkpt>
      <trkpt lat="43.53151" lon="6.25727">
        <ele>249.9</ele>
        <time>2017-01-04T13:39:52Z</time>
      </trkpt>
      <trkpt lat="43.53152" lon="6.25713">
        <ele>249.8</ele>
        <time>2017-01-04T13:40:00Z</time>
      </trkpt>
      <trkpt lat="43.53154" lon="6.257">
        <ele>249.9</ele>
        <time>2017-01-04T13:40:08Z</time>
      </trkpt>
      <trkpt lat="43.53157" lon="6.25687">
        <ele>250.4</ele>
        <time>2017-01-04T13:40:16Z</time>
      </trkpt>
      <trkpt lat="43.5316" lon="6.25675">
        <ele>250.2</ele>
        <time>2017-01-04T13:40:24Z</time>
      </trkpt>
      <trkpt lat="43.53164" lon="6.25663">
        <ele>250.4</ele>
        <time>2017-01-04T13:40:32Z</time>
      </trkpt>
      <trkpt lat="43.53169" lon="6.25652">
        <ele>250.2</ele>
        <time>2017-01-04T13:40:39Z</time>
      </trkpt>
      <trkpt lat="43.53172" lon="6.25639">
        <ele>249.9</ele>
        <time>2017-01-04T13:40:46Z</time>
      </trkpt>
      <trkpt lat="43.53176" lon="6.25627">
        <ele>249.9</ele>
        <time>2017-01-04T13:40:54Z</time>
      </trkpt>
      <trkpt lat="43.53179" lon="6.25615">
        <ele>249.2</ele>
        <time>2017-01-04T13:41:02Z</time>
      </trkpt>
      <trkpt lat="43.53183" lon="6.25603">
        <ele>249.2</ele>
        <time>2017-01-04T13:41:10Z</time>
      </trkpt>
      <trkpt lat="43.53187" lon="6.25591">
        <ele>248.7</ele>
        <time>2017-01-04T13:41:19Z</time>
      </trkpt>
      <trkpt lat="43.53191" lon="6.25579">
        <ele>248.8</ele>
        <time>2017-01-04T13:41:26Z</time>
      </trkpt>
      <trkpt lat="43.53196" lon="6.25568">
        <ele>249</ele>
        <time>2017-01-04T13:41:33Z</time>
      </trkpt>
      <trkpt lat="43.53199" lon="6.25555">
        <ele>249.2</ele>
        <time>2017-01-04T13:41:40Z</time>
      </trkpt>
      <trkpt lat="43.53203" lon="6.25544">
        <ele>249.4</ele>
        <time>2017-01-04T13:41:47Z</time>
      </trkpt>
      <trkpt lat="43.53207" lon="6.25533">
        <ele>248.8</ele>
        <time>2017-01-04T13:41:54Z</time>
      </trkpt>
      <trkpt lat="43.53212" lon="6.25521">
        <ele>248.5</ele>
        <time>2017-01-04T13:42:01Z</time>
      </trkpt>
      <trkpt lat="43.53216" lon="6.2551">
        <ele>248.3</ele>
        <time>2017-01-04T13:42:08Z</time>
      </trkpt>
      <trkpt lat="43.5322" lon="6.25499">
        <ele>248.2</ele>
        <time>2017-01-04T13:42:14Z</time>
      </trkpt>
      <trkpt lat="43.53224" lon="6.25487">
        <ele>247.9</ele>
        <time>2017-01-04T13:42:20Z</time>
      </trkpt>
      <trkpt lat="43.53228" lon="6.25475">
        <ele>248.2</ele>
        <time>2017-01-04T13:42:27Z</time>
      </trkpt>
      <trkpt lat="43.53232" lon="6.25463">
        <ele>248.3</ele>
        <time>2017-01-04T13:42:34Z</time>
      </trkpt>
      <trkpt lat="43.53237" lon="6.25451">
        <ele>248.1</ele>
        <time>2017-01-04T13:42:41Z</time>
      </trkpt>
      <trkpt lat="43.53241" lon="6.2544">
        <ele>247.6</ele>
        <time>2017-01-04T13:42:48Z</time>
      </trkpt>
      <trkpt lat="43.53247" lon="6.25429">
        <ele>247.7</ele>
        <time>2017-01-04T13:42:55Z</time>
      </trkpt>
      <trkpt lat="43.53252" lon="6.25419">
        <ele>248.2</ele>
        <time>2017-01-04T13:43:02Z</time>
      </trkpt>
      <trkpt lat="43.53259" lon="6.2541">
        <ele>247.8</ele>
        <time>2017-01-04T13:43:09Z</time>
      </trkpt>
      <trkpt lat="43.53265" lon="6.25402">
        <ele>247.6</ele>
        <time>2017-01-04T13:43:17Z</time>
      </trkpt>
      <trkpt lat="43.53273" lon="6.25393">
        <ele>247.1</ele>
        <time>2017-01-04T13:43:26Z</time>
      </trkpt>
      <trkpt lat="43.53281" lon="6.25386">
        <ele>247.2</ele>
        <time>2017-01-04T13:43:33Z</time>
      </trkpt>
      <trkpt lat="43.5329" lon="6.25379">
        <ele>247</ele>
        <time>2017-01-04T13:43:41Z</time>
      </trkpt>
      <trkpt lat="43.53299" lon="6.25374">
        <ele>246.9</ele>
        <time>2017-01-04T13:43:48Z</time>
      </trkpt>
      <trkpt lat="43.53307" lon="6.2537">
        <ele>247.1</ele>
        <time>2017-01-04T13:43:55Z</time>
      </trkpt>
      <trkpt lat="43.53316" lon="6.25366">
        <ele>247.1</ele>
        <time>2017-01-04T13:44:02Z</time>
      </trkpt>
      <trkpt lat="43.53325" lon="6.25362">
        <ele>247</ele>
        <time>2017-01-04T13:44:09Z</time>
      </trkpt>
      <trkpt lat="43.53334" lon="6.2536">
        <ele>246.3</ele>
        <time>2017-01-04T13:44:16Z</time>
      </trkpt>
      <trkpt lat="43.53344" lon="6.25358">
        <ele>246.3</ele>
        <time>2017-01-04T13:44:24Z</time>
      </trkpt>
      <trkpt lat="43.53354" lon="6.25358">
        <ele>246.2</ele>
        <time>2017-01-04T13:44:32Z</time>
      </trkpt>
      <trkpt lat="43.53363" lon="6.25357">
        <ele>245.9</ele>
        <time>2017-01-04T13:44:40Z</time>
      </trkpt>
      <trkpt lat="43.53372" lon="6.25358">
        <ele>245.4</ele>
        <time>2017-01-04T13:44:47Z</time>
      </trkpt>
      <trkpt lat="43.53382" lon="6.25359">
        <ele>245.1</ele>
        <time>2017-01-04T13:44:55Z</time>
      </trkpt>
      <trkpt lat="43.53391" lon="6.2536">
        <ele>245</ele>
        <time>2017-01-04T13:45:02Z</time>
      </trkpt>
      <trkpt lat="43.53401" lon="6.2536">
        <ele>244.9</ele>
        <time>2017-01-04T13:45:09Z</time>
      </trkpt>
      <trkpt lat="43.5341" lon="6.25361">
        <ele>244.6</ele>
        <time>2017-01-04T13:45:16Z</time>
      </trkpt>
      <trkpt lat="43.5342" lon="6.25361">
        <ele>244.7</ele>
        <time>2017-01-04T13:45:23Z</time>
      </trkpt>
      <trkpt lat="43.53429" lon="6.2536">
        <ele>244.2</ele>
        <time>2017-01-04T13:45:31Z</time>
      </trkpt>
      <trkpt lat="43.53439" lon="6.25359">
        <ele>244.4</ele>
        <time>2017-01-04T13:45:39Z</time>
      </trkpt>
      <trkpt lat="43.53448" lon="6.25356">
        <ele>244.6</ele>
        <time>2017-01-04T13:45:46Z</time>
      </trkpt>
      <trkpt lat="43.53458" lon="6.25353">
        <ele>244.4</ele>
        <time>2017-01-04T13:45:54Z</time>
      </trkpt>
      <trkpt lat="43.53467" lon="6.25349">
        <ele>243.9</ele>
        <time>2017-01-04T13:46:02Z</time>
      </trkpt>
      <trkpt lat="43.53476" lon="6.25344">
        <ele>243.9</ele>
        <time>2017-01-04T13:46:10Z</time>
      </trkpt>
      <trkpt lat="43.53485" lon="6.25339">
        <ele>243.8</ele>
        <time>2017-01-04T13:46:18Z</time>
      </trkpt>
      <trkpt lat="43.53494" lon="6.25333">
        <ele>244.3</ele>
        <time>2017-01-04T13:48:14Z</time>
      </trkpt>
      <trkpt lat="43.53504" lon="6.25328">
        <ele>244.3</ele>
        <time>2017-01-04T13:48:22Z</time>
      </trkpt>
      <trkpt lat="43.53513" lon="6.25324">
        <ele>244.2</ele>
        <time>2017-01-04T13:48:30Z</time>
      </trkpt>
      <trkpt lat="43.53522" lon="6.25319">
        <ele>243.9</ele>
        <time>2017-01-04T13:48:38Z</time>
      </trkpt>
      <trkpt lat="43.53532" lon="6.25313">
        <ele>243.9</ele>
        <time>2017-01-04T13:48:46Z</time>
      </trkpt>
      <trkpt lat="43.53541" lon="6.25308">
        <ele>243.8</ele>
        <time>2017-01-04T13:48:54Z</time>
      </trkpt>
      <trkpt lat="43.53551" lon="6.25304">
        <ele>243.6</ele>
        <time>2017-01-04T13:49:02Z</time>
      </trkpt>
      <trkpt lat="43.5356" lon="6.25301">
        <ele>243.5</ele>
        <time>2017-01-04T13:49:10Z</time>
      </trkpt>
      <trkpt lat="43.5357" lon="6.25298">
        <ele>243.3</ele>
        <time>2017-01-04T13:49:18Z</time>
      </trkpt>
      <trkpt lat="43.5358" lon="6.25297">
        <ele>243.7</ele>
        <time>2017-01-04T13:49:26Z</time>
      </trkpt>
      <trkpt lat="43.53589" lon="6.25297">
        <ele>243.9</ele>
        <time>2017-01-04T13:49:33Z</time>
      </trkpt>
      <trkpt lat="43.53599" lon="6.25297">
        <ele>244.1</ele>
        <time>2017-01-04T13:49:41Z</time>
      </trkpt>
      <trkpt lat="43.53609" lon="6.25301">
        <ele>244</ele>
        <time>2017-01-04T13:49:49Z</time>
      </trkpt>
      <trkpt lat="43.53619" lon="6.25303">
        <ele>243.7</ele>
        <time>2017-01-04T13:49:57Z</time>
      </trkpt>
      <trkpt lat="43.53626" lon="6.25311">
        <ele>243.1</ele>
        <time>2017-01-04T13:50:06Z</time>
      </trkpt>
      <trkpt lat="43.53635" lon="6.25317">
        <ele>243.1</ele>
        <time>2017-01-04T13:50:16Z</time>
      </trkpt>
      <trkpt lat="43.53646" lon="6.25318">
        <ele>243</ele>
        <time>2017-01-04T13:50:24Z</time>
      </trkpt>
      <trkpt lat="43.53654" lon="6.25324">
        <ele>242.1</ele>
        <time>2017-01-04T13:50:31Z</time>
      </trkpt>
      <trkpt lat="43.53662" lon="6.25331">
        <ele>241.9</ele>
        <time>2017-01-04T13:50:38Z</time>
      </trkpt>
      <trkpt lat="43.53668" lon="6.2534">
        <ele>242.1</ele>
        <time>2017-01-04T13:50:44Z</time>
      </trkpt>
      <trkpt lat="43.53675" lon="6.25349">
        <ele>242.3</ele>
        <time>2017-01-04T13:50:51Z</time>
      </trkpt>
      <trkpt lat="43.53682" lon="6.25357">
        <ele>242</ele>
        <time>2017-01-04T13:50:59Z</time>
      </trkpt>
      <trkpt lat="43.53689" lon="6.25366">
        <ele>241.7</ele>
        <time>2017-01-04T13:51:08Z</time>
      </trkpt>
      <trkpt lat="43.53695" lon="6.25376">
        <ele>241.9</ele>
        <time>2017-01-04T13:51:16Z</time>
      </trkpt>
      <trkpt lat="43.537" lon="6.25387">
        <ele>242.1</ele>
        <time>2017-01-04T13:51:24Z</time>
      </trkpt>
      <trkpt lat="43.53705" lon="6.25398">
        <ele>242.2</ele>
        <time>2017-01-04T13:51:32Z</time>
      </trkpt>
      <trkpt lat="43.53711" lon="6.25409">
        <ele>242.1</ele>
        <time>2017-01-04T13:51:40Z</time>
      </trkpt>
      <trkpt lat="43.53716" lon="6.25419">
        <ele>242.1</ele>
        <time>2017-01-04T13:51:48Z</time>
      </trkpt>
      <trkpt lat="43.53722" lon="6.25431">
        <ele>242.1</ele>
        <time>2017-01-04T13:51:56Z</time>
      </trkpt>
      <trkpt lat="43.53728" lon="6.25441">
        <ele>242.1</ele>
        <time>2017-01-04T13:52:05Z</time>
      </trkpt>
      <trkpt lat="43.53733" lon="6.25451">
        <ele>242.4</ele>
        <time>2017-01-04T13:52:12Z</time>
      </trkpt>
      <trkpt lat="43.53738" lon="6.25461">
        <ele>242.2</ele>
        <time>2017-01-04T13:52:20Z</time>
      </trkpt>
      <trkpt lat="43.53744" lon="6.25472">
        <ele>241.9</ele>
        <time>2017-01-04T13:52:28Z</time>
      </trkpt>
      <trkpt lat="43.5375" lon="6.25484">
        <ele>241.3</ele>
        <time>2017-01-04T13:52:36Z</time>
      </trkpt>
      <trkpt lat="43.53755" lon="6.25494">
        <ele>240.5</ele>
        <time>2017-01-04T13:52:43Z</time>
      </trkpt>
      <trkpt lat="43.53761" lon="6.25505">
        <ele>240.7</ele>
        <time>2017-01-04T13:52:51Z</time>
      </trkpt>
      <trkpt lat="43.53767" lon="6.25516">
        <ele>240.4</ele>
        <time>2017-01-04T13:52:58Z</time>
      </trkpt>
      <trkpt lat="43.53773" lon="6.25527">
        <ele>240.2</ele>
        <time>2017-01-04T13:53:06Z</time>
      </trkpt>
      <trkpt lat="43.53778" lon="6.25537">
        <ele>240.4</ele>
        <time>2017-01-04T13:53:13Z</time>
      </trkpt>
      <trkpt lat="43.53784" lon="6.25547">
        <ele>240.2</ele>
        <time>2017-01-04T13:53:20Z</time>
      </trkpt>
      <trkpt lat="43.53791" lon="6.25554">
        <ele>239.8</ele>
        <time>2017-01-04T13:53:29Z</time>
      </trkpt>
      <trkpt lat="43.538" lon="6.2556">
        <ele>239.2</ele>
        <time>2017-01-04T13:53:38Z</time>
      </trkpt>
      <trkpt lat="43.53808" lon="6.25567">
        <ele>238.3</ele>
        <time>2017-01-04T13:53:46Z</time>
      </trkpt>
      <trkpt lat="43.53816" lon="6.25574">
        <ele>238.2</ele>
        <time>2017-01-04T13:53:53Z</time>
      </trkpt>
      <trkpt lat="43.53824" lon="6.25582">
        <ele>237.9</ele>
        <time>2017-01-04T13:54:01Z</time>
      </trkpt>
      <trkpt lat="43.53832" lon="6.2559">
        <ele>238</ele>
        <time>2017-01-04T13:54:07Z</time>
      </trkpt>
      <trkpt lat="43.5384" lon="6.25597">
        <ele>238.2</ele>
        <time>2017-01-04T13:54:13Z</time>
      </trkpt>
      <trkpt lat="43.53848" lon="6.25605">
        <ele>237.8</ele>
        <time>2017-01-04T13:54:20Z</time>
      </trkpt>
      <trkpt lat="43.53857" lon="6.25609">
        <ele>236.9</ele>
        <time>2017-01-04T13:54:28Z</time>
      </trkpt>
      <trkpt lat="43.53866" lon="6.25613">
        <ele>237</ele>
        <time>2017-01-04T13:54:36Z</time>
      </trkpt>
      <trkpt lat="43.53875" lon="6.25619">
        <ele>237.5</ele>
        <time>2017-01-04T13:54:44Z</time>
      </trkpt>
      <trkpt lat="43.53883" lon="6.25625">
        <ele>238</ele>
        <time>2017-01-04T13:54:51Z</time>
      </trkpt>
      <trkpt lat="43.53892" lon="6.25631">
        <ele>237.8</ele>
        <time>2017-01-04T13:54:59Z</time>
      </trkpt>
      <trkpt lat="43.53899" lon="6.2564">
        <ele>237.1</ele>
        <time>2017-01-04T13:55:06Z</time>
      </trkpt>
      <trkpt lat="43.53907" lon="6.25646">
        <ele>236.5</ele>
        <time>2017-01-04T13:55:13Z</time>
      </trkpt>
      <trkpt lat="43.53916" lon="6.25652">
        <ele>236.3</ele>
        <time>2017-01-04T13:55:21Z</time>
      </trkpt>
      <trkpt lat="43.53923" lon="6.25661">
        <ele>236</ele>
        <time>2017-01-04T13:55:28Z</time>
      </trkpt>
      <trkpt lat="43.53929" lon="6.2567">
        <ele>235.4</ele>
        <time>2017-01-04T13:55:35Z</time>
      </trkpt>
      <trkpt lat="43.53937" lon="6.25678">
        <ele>235</ele>
        <time>2017-01-04T13:55:42Z</time>
      </trkpt>
      <trkpt lat="43.53944" lon="6.25688">
        <ele>235</ele>
        <time>2017-01-04T13:55:50Z</time>
      </trkpt>
      <trkpt lat="43.53953" lon="6.25696">
        <ele>235</ele>
        <time>2017-01-04T13:55:57Z</time>
      </trkpt>
      <trkpt lat="43.53962" lon="6.257">
        <ele>234.6</ele>
        <time>2017-01-04T13:56:05Z</time>
      </trkpt>
      <trkpt lat="43.53971" lon="6.25705">
        <ele>234.5</ele>
        <time>2017-01-04T13:56:14Z</time>
      </trkpt>
      <trkpt lat="43.53979" lon="6.2571">
        <ele>234.2</ele>
        <time>2017-01-04T13:56:22Z</time>
      </trkpt>
      <trkpt lat="43.53988" lon="6.25716">
        <ele>234.3</ele>
        <time>2017-01-04T13:56:29Z</time>
      </trkpt>
      <trkpt lat="43.53997" lon="6.2572">
        <ele>234.1</ele>
        <time>2017-01-04T13:56:36Z</time>
      </trkpt>
      <trkpt lat="43.54007" lon="6.25721">
        <ele>233.8</ele>
        <time>2017-01-04T13:56:44Z</time>
      </trkpt>
      <trkpt lat="43.54016" lon="6.25723">
        <ele>234.2</ele>
        <time>2017-01-04T13:56:51Z</time>
      </trkpt>
      <trkpt lat="43.54026" lon="6.25725">
        <ele>234.1</ele>
        <time>2017-01-04T13:56:59Z</time>
      </trkpt>
      <trkpt lat="43.54036" lon="6.25726">
        <ele>233.8</ele>
        <time>2017-01-04T13:57:07Z</time>
      </trkpt>
      <trkpt lat="43.54047" lon="6.25726">
        <ele>233.7</ele>
        <time>2017-01-04T13:57:14Z</time>
      </trkpt>
      <trkpt lat="43.54056" lon="6.25726">
        <ele>233.9</ele>
        <time>2017-01-04T13:57:21Z</time>
      </trkpt>
      <trkpt lat="43.54066" lon="6.25724">
        <ele>234.2</ele>
        <time>2017-01-04T13:57:28Z</time>
      </trkpt>
      <trkpt lat="43.54076" lon="6.25723">
        <ele>234.5</ele>
        <time>2017-01-04T13:57:34Z</time>
      </trkpt>
      <trkpt lat="43.54085" lon="6.25722">
        <ele>234.2</ele>
        <time>2017-01-04T13:57:41Z</time>
      </trkpt>
      <trkpt lat="43.54094" lon="6.25721">
        <ele>233.8</ele>
        <time>2017-01-04T13:57:52Z</time>
      </trkpt>
      <trkpt lat="43.54104" lon="6.2572">
        <ele>233.4</ele>
        <time>2017-01-04T13:58:02Z</time>
      </trkpt>
      <trkpt lat="43.54114" lon="6.25718">
        <ele>232.9</ele>
        <time>2017-01-04T13:58:10Z</time>
      </trkpt>
      <trkpt lat="43.54124" lon="6.25717">
        <ele>232.8</ele>
        <time>2017-01-04T13:58:17Z</time>
      </trkpt>
      <trkpt lat="43.54134" lon="6.25716">
        <ele>232.9</ele>
        <time>2017-01-04T13:58:25Z</time>
      </trkpt>
      <trkpt lat="43.54143" lon="6.25715">
        <ele>233.2</ele>
        <time>2017-01-04T13:58:32Z</time>
      </trkpt>
      <trkpt lat="43.54153" lon="6.25713">
        <ele>233.5</ele>
        <time>2017-01-04T13:58:40Z</time>
      </trkpt>
      <trkpt lat="43.54162" lon="6.25712">
        <ele>233.5</ele>
        <time>2017-01-04T13:58:48Z</time>
      </trkpt>
      <trkpt lat="43.54172" lon="6.25711">
        <ele>233.2</ele>
        <time>2017-01-04T13:58:56Z</time>
      </trkpt>
      <trkpt lat="43.54181" lon="6.2571">
        <ele>232.4</ele>
        <time>2017-01-04T13:59:03Z</time>
      </trkpt>
      <trkpt lat="43.5419" lon="6.25708">
        <ele>232.4</ele>
        <time>2017-01-04T13:59:12Z</time>
      </trkpt>
      <trkpt lat="43.54196" lon="6.25717">
        <ele>231.8</ele>
        <time>2017-01-04T13:59:44Z</time>
      </trkpt>
      <trkpt lat="43.54203" lon="6.25727">
        <ele>231.1</ele>
        <time>2017-01-04T13:59:57Z</time>
      </trkpt>
      <trkpt lat="43.54207" lon="6.25739">
        <ele>230.5</ele>
        <time>2017-01-04T14:00:08Z</time>
      </trkpt>
      <trkpt lat="43.54213" lon="6.25749">
        <ele>230</ele>
        <time>2017-01-04T14:00:22Z</time>
      </trkpt>
      <trkpt lat="43.54215" lon="6.25761">
        <ele>228.4</ele>
        <time>2017-01-04T14:00:38Z</time>
      </trkpt>
      <trkpt lat="43.54221" lon="6.2577">
        <ele>228.5</ele>
        <time>2017-01-04T14:01:23Z</time>
      </trkpt>
      <trkpt lat="43.54212" lon="6.25773">
        <ele>228.5</ele>
        <time>2017-01-04T14:03:10Z</time>
      </trkpt>
      <trkpt lat="43.54216" lon="6.25762">
        <ele>229.1</ele>
        <time>2017-01-04T14:06:11Z</time>
      </trkpt>
      <trkpt lat="43.54214" lon="6.25749">
        <ele>229.6</ele>
        <time>2017-01-04T14:06:28Z</time>
      </trkpt>
      <trkpt lat="43.54211" lon="6.25737">
        <ele>230.2</ele>
        <time>2017-01-04T14:06:41Z</time>
      </trkpt>
      <trkpt lat="43.54204" lon="6.25727">
        <ele>231.1</ele>
        <time>2017-01-04T14:06:50Z</time>
      </trkpt>
      <trkpt lat="43.54202" lon="6.25715">
        <ele>231.3</ele>
        <time>2017-01-04T14:07:00Z</time>
      </trkpt>
      <trkpt lat="43.54209" lon="6.25706">
        <ele>231.6</ele>
        <time>2017-01-04T14:07:32Z</time>
      </trkpt>
      <trkpt lat="43.54218" lon="6.25704">
        <ele>230.7</ele>
        <time>2017-01-04T14:07:49Z</time>
      </trkpt>
      <trkpt lat="43.54228" lon="6.25703">
        <ele>230.5</ele>
        <time>2017-01-04T14:08:00Z</time>
      </trkpt>
      <trkpt lat="43.54237" lon="6.25703">
        <ele>230.3</ele>
        <time>2017-01-04T14:08:09Z</time>
      </trkpt>
      <trkpt lat="43.54247" lon="6.25703">
        <ele>230.4</ele>
        <time>2017-01-04T14:08:17Z</time>
      </trkpt>
      <trkpt lat="43.54256" lon="6.25703">
        <ele>230.6</ele>
        <time>2017-01-04T14:08:27Z</time>
      </trkpt>
      <trkpt lat="43.54266" lon="6.25702">
        <ele>230.2</ele>
        <time>2017-01-04T14:08:46Z</time>
      </trkpt>
      <trkpt lat="43.54275" lon="6.257">
        <ele>229.9</ele>
        <time>2017-01-04T14:08:53Z</time>
      </trkpt>
      <trkpt lat="43.54285" lon="6.25698">
        <ele>229.8</ele>
        <time>2017-01-04T14:09:01Z</time>
      </trkpt>
      <trkpt lat="43.54294" lon="6.25696">
        <ele>229.5</ele>
        <time>2017-01-04T14:09:08Z</time>
      </trkpt>
      <trkpt lat="43.54304" lon="6.25694">
        <ele>229.5</ele>
        <time>2017-01-04T14:09:16Z</time>
      </trkpt>
      <trkpt lat="43.54313" lon="6.25691">
        <ele>229.8</ele>
        <time>2017-01-04T14:09:24Z</time>
      </trkpt>
      <trkpt lat="43.54322" lon="6.25687">
        <ele>229.6</ele>
        <time>2017-01-04T14:09:32Z</time>
      </trkpt>
      <trkpt lat="43.54331" lon="6.25683">
        <ele>229.6</ele>
        <time>2017-01-04T14:09:39Z</time>
      </trkpt>
      <trkpt lat="43.54339" lon="6.25678">
        <ele>230.2</ele>
        <time>2017-01-04T14:09:46Z</time>
      </trkpt>
      <trkpt lat="43.54348" lon="6.25672">
        <ele>230.6</ele>
        <time>2017-01-04T14:09:54Z</time>
      </trkpt>
      <trkpt lat="43.54357" lon="6.25667">
        <ele>229.9</ele>
        <time>2017-01-04T14:10:02Z</time>
      </trkpt>
      <trkpt lat="43.54365" lon="6.2566">
        <ele>229.9</ele>
        <time>2017-01-04T14:10:10Z</time>
      </trkpt>
      <trkpt lat="43.54374" lon="6.25653">
        <ele>229.8</ele>
        <time>2017-01-04T14:10:18Z</time>
      </trkpt>
      <trkpt lat="43.54382" lon="6.25646">
        <ele>230</ele>
        <time>2017-01-04T14:10:26Z</time>
      </trkpt>
      <trkpt lat="43.5439" lon="6.25638">
        <ele>229.8</ele>
        <time>2017-01-04T14:10:34Z</time>
      </trkpt>
      <trkpt lat="43.54397" lon="6.2563">
        <ele>229.7</ele>
        <time>2017-01-04T14:10:41Z</time>
      </trkpt>
      <trkpt lat="43.54404" lon="6.25622">
        <ele>229.8</ele>
        <time>2017-01-04T14:10:48Z</time>
      </trkpt>
      <trkpt lat="43.54412" lon="6.25615">
        <ele>229.4</ele>
        <time>2017-01-04T14:10:55Z</time>
      </trkpt>
      <trkpt lat="43.54419" lon="6.25606">
        <ele>229</ele>
        <time>2017-01-04T14:11:03Z</time>
      </trkpt>
      <trkpt lat="43.54424" lon="6.25595">
        <ele>229</ele>
        <time>2017-01-04T14:11:12Z</time>
      </trkpt>
      <trkpt lat="43.5443" lon="6.25585">
        <ele>228.7</ele>
        <time>2017-01-04T14:11:20Z</time>
      </trkpt>
      <trkpt lat="43.54437" lon="6.25575">
        <ele>228.6</ele>
        <time>2017-01-04T14:11:30Z</time>
      </trkpt>
      <trkpt lat="43.54443" lon="6.25566">
        <ele>227.8</ele>
        <time>2017-01-04T14:12:01Z</time>
      </trkpt>
      <trkpt lat="43.54448" lon="6.25556">
        <ele>228.1</ele>
        <time>2017-01-04T14:12:09Z</time>
      </trkpt>
      <trkpt lat="43.54454" lon="6.25546">
        <ele>228.5</ele>
        <time>2017-01-04T14:12:17Z</time>
      </trkpt>
      <trkpt lat="43.54461" lon="6.25536">
        <ele>228.3</ele>
        <time>2017-01-04T14:12:24Z</time>
      </trkpt>
      <trkpt lat="43.54467" lon="6.25526">
        <ele>228</ele>
        <time>2017-01-04T14:12:32Z</time>
      </trkpt>
      <trkpt lat="43.54471" lon="6.25513">
        <ele>227.9</ele>
        <time>2017-01-04T14:12:40Z</time>
      </trkpt>
      <trkpt lat="43.54477" lon="6.25504">
        <ele>228.1</ele>
        <time>2017-01-04T14:12:47Z</time>
      </trkpt>
      <trkpt lat="43.54481" lon="6.25492">
        <ele>227.8</ele>
        <time>2017-01-04T14:12:56Z</time>
      </trkpt>
      <trkpt lat="43.54488" lon="6.25482">
        <ele>228.1</ele>
        <time>2017-01-04T14:13:04Z</time>
      </trkpt>
      <trkpt lat="43.54493" lon="6.25471">
        <ele>227.8</ele>
        <time>2017-01-04T14:13:12Z</time>
      </trkpt>
      <trkpt lat="43.54497" lon="6.25458">
        <ele>227.6</ele>
        <time>2017-01-04T14:13:20Z</time>
      </trkpt>
      <trkpt lat="43.54502" lon="6.25446">
        <ele>227.8</ele>
        <time>2017-01-04T14:13:28Z</time>
      </trkpt>
      <trkpt lat="43.54507" lon="6.25436">
        <ele>227.5</ele>
        <time>2017-01-04T14:13:35Z</time>
      </trkpt>
      <trkpt lat="43.54511" lon="6.25423">
        <ele>227.6</ele>
        <time>2017-01-04T14:13:44Z</time>
      </trkpt>
      <trkpt lat="43.54516" lon="6.25412">
        <ele>227.6</ele>
        <time>2017-01-04T14:13:52Z</time>
      </trkpt>
      <trkpt lat="43.5452" lon="6.254">
        <ele>227.7</ele>
        <time>2017-01-04T14:14:01Z</time>
      </trkpt>
      <trkpt lat="43.54523" lon="6.25388">
        <ele>227.5</ele>
        <time>2017-01-04T14:14:10Z</time>
      </trkpt>
      <trkpt lat="43.54526" lon="6.25375">
        <ele>227.2</ele>
        <time>2017-01-04T14:14:19Z</time>
      </trkpt>
      <trkpt lat="43.54531" lon="6.25363">
        <ele>227</ele>
        <time>2017-01-04T14:14:26Z</time>
      </trkpt>
      <trkpt lat="43.54533" lon="6.25376">
        <ele>226.7</ele>
        <time>2017-01-04T14:14:41Z</time>
      </trkpt>
      <trkpt lat="43.54531" lon="6.25389">
        <ele>226.9</ele>
        <time>2017-01-04T14:14:52Z</time>
      </trkpt>
      <trkpt lat="43.54527" lon="6.25401">
        <ele>227.9</ele>
        <time>2017-01-04T14:15:19Z</time>
      </trkpt>
      <trkpt lat="43.54523" lon="6.25413">
        <ele>228.1</ele>
        <time>2017-01-04T14:15:30Z</time>
      </trkpt>
      <trkpt lat="43.5452" lon="6.25425">
        <ele>227.7</ele>
        <time>2017-01-04T14:15:42Z</time>
      </trkpt>
      <trkpt lat="43.54518" lon="6.25437">
        <ele>227.7</ele>
        <time>2017-01-04T14:15:54Z</time>
      </trkpt>
      <trkpt lat="43.54513" lon="6.25449">
        <ele>228.2</ele>
        <time>2017-01-04T14:16:03Z</time>
      </trkpt>
      <trkpt lat="43.54509" lon="6.2546">
        <ele>228.5</ele>
        <time>2017-01-04T14:16:11Z</time>
      </trkpt>
      <trkpt lat="43.54506" lon="6.25472">
        <ele>228.4</ele>
        <time>2017-01-04T14:16:21Z</time>
      </trkpt>
      <trkpt lat="43.54501" lon="6.25484">
        <ele>228.3</ele>
        <time>2017-01-04T14:16:30Z</time>
      </trkpt>
      <trkpt lat="43.54496" lon="6.25494">
        <ele>228.6</ele>
        <time>2017-01-04T14:16:38Z</time>
      </trkpt>
      <trkpt lat="43.54491" lon="6.25505">
        <ele>228.2</ele>
        <time>2017-01-04T14:16:48Z</time>
      </trkpt>
      <trkpt lat="43.54487" lon="6.25517">
        <ele>228.4</ele>
        <time>2017-01-04T14:17:05Z</time>
      </trkpt>
      <trkpt lat="43.54482" lon="6.25528">
        <ele>229.1</ele>
        <time>2017-01-04T14:17:14Z</time>
      </trkpt>
      <trkpt lat="43.54478" lon="6.2554">
        <ele>229.7</ele>
        <time>2017-01-04T14:17:24Z</time>
      </trkpt>
      <trkpt lat="43.54475" lon="6.25553">
        <ele>230.5</ele>
        <time>2017-01-04T14:17:35Z</time>
      </trkpt>
      <trkpt lat="43.54471" lon="6.25564">
        <ele>231.1</ele>
        <time>2017-01-04T14:17:45Z</time>
      </trkpt>
      <trkpt lat="43.54464" lon="6.25574">
        <ele>230.9</ele>
        <time>2017-01-04T14:17:53Z</time>
      </trkpt>
      <trkpt lat="43.54458" lon="6.25584">
        <ele>231</ele>
        <time>2017-01-04T14:18:03Z</time>
      </trkpt>
      <trkpt lat="43.54449" lon="6.25591">
        <ele>231.5</ele>
        <time>2017-01-04T14:18:10Z</time>
      </trkpt>
      <trkpt lat="43.54442" lon="6.25601">
        <ele>231.7</ele>
        <time>2017-01-04T14:18:18Z</time>
      </trkpt>
      <trkpt lat="43.54436" lon="6.25612">
        <ele>232.1</ele>
        <time>2017-01-04T14:18:28Z</time>
      </trkpt>
      <trkpt lat="43.54429" lon="6.25621">
        <ele>232.9</ele>
        <time>2017-01-04T14:18:37Z</time>
      </trkpt>
      <trkpt lat="43.54423" lon="6.25632">
        <ele>234.1</ele>
        <time>2017-01-04T14:18:48Z</time>
      </trkpt>
      <trkpt lat="43.54419" lon="6.25644">
        <ele>234.5</ele>
        <time>2017-01-04T14:18:57Z</time>
      </trkpt>
      <trkpt lat="43.54415" lon="6.25655">
        <ele>234.8</ele>
        <time>2017-01-04T14:19:07Z</time>
      </trkpt>
      <trkpt lat="43.54409" lon="6.25666">
        <ele>235.6</ele>
        <time>2017-01-04T14:19:17Z</time>
      </trkpt>
      <trkpt lat="43.54404" lon="6.25676">
        <ele>237</ele>
        <time>2017-01-04T14:19:27Z</time>
      </trkpt>
      <trkpt lat="43.54397" lon="6.25687">
        <ele>237.5</ele>
        <time>2017-01-04T14:19:35Z</time>
      </trkpt>
      <trkpt lat="43.54392" lon="6.25697">
        <ele>237.9</ele>
        <time>2017-01-04T14:19:44Z</time>
      </trkpt>
      <trkpt lat="43.54386" lon="6.25707">
        <ele>239.5</ele>
        <time>2017-01-04T14:19:55Z</time>
      </trkpt>
      <trkpt lat="43.5438" lon="6.25718">
        <ele>240.4</ele>
        <time>2017-01-04T14:20:03Z</time>
      </trkpt>
      <trkpt lat="43.54373" lon="6.25728">
        <ele>241</ele>
        <time>2017-01-04T14:20:12Z</time>
      </trkpt>
      <trkpt lat="43.54366" lon="6.25737">
        <ele>242.1</ele>
        <time>2017-01-04T14:20:22Z</time>
      </trkpt>
      <trkpt lat="43.54358" lon="6.25742">
        <ele>243.4</ele>
        <time>2017-01-04T14:20:30Z</time>
      </trkpt>
      <trkpt lat="43.54351" lon="6.2575">
        <ele>244.6</ele>
        <time>2017-01-04T14:20:41Z</time>
      </trkpt>
      <trkpt lat="43.54348" lon="6.25763">
        <ele>245.4</ele>
        <time>2017-01-04T14:20:51Z</time>
      </trkpt>
      <trkpt lat="43.54343" lon="6.25774">
        <ele>246.2</ele>
        <time>2017-01-04T14:20:59Z</time>
      </trkpt>
      <trkpt lat="43.5434" lon="6.25788">
        <ele>246.2</ele>
        <time>2017-01-04T14:21:08Z</time>
      </trkpt>
      <trkpt lat="43.54335" lon="6.25799">
        <ele>246</ele>
        <time>2017-01-04T14:21:16Z</time>
      </trkpt>
      <trkpt lat="43.54332" lon="6.25811">
        <ele>246.7</ele>
        <time>2017-01-04T14:21:24Z</time>
      </trkpt>
      <trkpt lat="43.54328" lon="6.25823">
        <ele>246.7</ele>
        <time>2017-01-04T14:21:32Z</time>
      </trkpt>
      <trkpt lat="43.54325" lon="6.25834">
        <ele>246.7</ele>
        <time>2017-01-04T14:21:41Z</time>
      </trkpt>
      <trkpt lat="43.54323" lon="6.25847">
        <ele>247.2</ele>
        <time>2017-01-04T14:21:49Z</time>
      </trkpt>
      <trkpt lat="43.54322" lon="6.25861">
        <ele>247.7</ele>
        <time>2017-01-04T14:21:57Z</time>
      </trkpt>
      <trkpt lat="43.54321" lon="6.25875">
        <ele>247.8</ele>
        <time>2017-01-04T14:22:06Z</time>
      </trkpt>
      <trkpt lat="43.54317" lon="6.25887">
        <ele>247.3</ele>
        <time>2017-01-04T14:22:14Z</time>
      </trkpt>
      <trkpt lat="43.54312" lon="6.25898">
        <ele>246.6</ele>
        <time>2017-01-04T14:22:22Z</time>
      </trkpt>
      <trkpt lat="43.54307" lon="6.25909">
        <ele>246.6</ele>
        <time>2017-01-04T14:22:30Z</time>
      </trkpt>
      <trkpt lat="43.54303" lon="6.2592">
        <ele>246.5</ele>
        <time>2017-01-04T14:22:38Z</time>
      </trkpt>
      <trkpt lat="43.54296" lon="6.25931">
        <ele>246.4</ele>
        <time>2017-01-04T14:22:46Z</time>
      </trkpt>
      <trkpt lat="43.5429" lon="6.25941">
        <ele>246.4</ele>
        <time>2017-01-04T14:22:54Z</time>
      </trkpt>
      <trkpt lat="43.54285" lon="6.25953">
        <ele>246.6</ele>
        <time>2017-01-04T14:23:02Z</time>
      </trkpt>
      <trkpt lat="43.54279" lon="6.25964">
        <ele>247.1</ele>
        <time>2017-01-04T14:23:10Z</time>
      </trkpt>
      <trkpt lat="43.54274" lon="6.25975">
        <ele>247.5</ele>
        <time>2017-01-04T14:23:18Z</time>
      </trkpt>
      <trkpt lat="43.5427" lon="6.25987">
        <ele>247.8</ele>
        <time>2017-01-04T14:23:27Z</time>
      </trkpt>
      <trkpt lat="43.54267" lon="6.25999">
        <ele>248.6</ele>
        <time>2017-01-04T14:23:37Z</time>
      </trkpt>
      <trkpt lat="43.54266" lon="6.26012">
        <ele>248.9</ele>
        <time>2017-01-04T14:23:47Z</time>
      </trkpt>
      <trkpt lat="43.54266" lon="6.26026">
        <ele>249.7</ele>
        <time>2017-01-04T14:23:58Z</time>
      </trkpt>
      <trkpt lat="43.54268" lon="6.26039">
        <ele>251.2</ele>
        <time>2017-01-04T14:24:08Z</time>
      </trkpt>
      <trkpt lat="43.54268" lon="6.26052">
        <ele>252.6</ele>
        <time>2017-01-04T14:24:19Z</time>
      </trkpt>
      <trkpt lat="43.54271" lon="6.26065">
        <ele>254.5</ele>
        <time>2017-01-04T14:24:30Z</time>
      </trkpt>
      <trkpt lat="43.54275" lon="6.26077">
        <ele>256.1</ele>
        <time>2017-01-04T14:24:41Z</time>
      </trkpt>
      <trkpt lat="43.54281" lon="6.26087">
        <ele>257.5</ele>
        <time>2017-01-04T14:24:52Z</time>
      </trkpt>
      <trkpt lat="43.54286" lon="6.26098">
        <ele>259.2</ele>
        <time>2017-01-04T14:25:04Z</time>
      </trkpt>
      <trkpt lat="43.54291" lon="6.26109">
        <ele>260.6</ele>
        <time>2017-01-04T14:25:14Z</time>
      </trkpt>
      <trkpt lat="43.54294" lon="6.26121">
        <ele>262.2</ele>
        <time>2017-01-04T14:25:25Z</time>
      </trkpt>
      <trkpt lat="43.54298" lon="6.26133">
        <ele>262.9</ele>
        <time>2017-01-04T14:25:35Z</time>
      </trkpt>
      <trkpt lat="43.54302" lon="6.26145">
        <ele>263.9</ele>
        <time>2017-01-04T14:25:45Z</time>
      </trkpt>
      <trkpt lat="43.54306" lon="6.26157">
        <ele>264.2</ele>
        <time>2017-01-04T14:25:54Z</time>
      </trkpt>
      <trkpt lat="43.5431" lon="6.26168">
        <ele>264.7</ele>
        <time>2017-01-04T14:26:01Z</time>
      </trkpt>
      <trkpt lat="43.54313" lon="6.2618">
        <ele>265</ele>
        <time>2017-01-04T14:26:08Z</time>
      </trkpt>
      <trkpt lat="43.54317" lon="6.26194">
        <ele>265.2</ele>
        <time>2017-01-04T14:26:15Z</time>
      </trkpt>
      <trkpt lat="43.54319" lon="6.26207">
        <ele>265.2</ele>
        <time>2017-01-04T14:26:23Z</time>
      </trkpt>
      <trkpt lat="43.54319" lon="6.2622">
        <ele>265.4</ele>
        <time>2017-01-04T14:26:32Z</time>
      </trkpt>
      <trkpt lat="43.5432" lon="6.26233">
        <ele>266.1</ele>
        <time>2017-01-04T14:26:41Z</time>
      </trkpt>
      <trkpt lat="43.54321" lon="6.26245">
        <ele>266.1</ele>
        <time>2017-01-04T14:26:49Z</time>
      </trkpt>
      <trkpt lat="43.54321" lon="6.26259">
        <ele>266.7</ele>
        <time>2017-01-04T14:26:58Z</time>
      </trkpt>
      <trkpt lat="43.54322" lon="6.26272">
        <ele>267</ele>
        <time>2017-01-04T14:27:07Z</time>
      </trkpt>
      <trkpt lat="43.5432" lon="6.26284">
        <ele>267.5</ele>
        <time>2017-01-04T14:27:16Z</time>
      </trkpt>
      <trkpt lat="43.54324" lon="6.26296">
        <ele>268.3</ele>
        <time>2017-01-04T14:27:26Z</time>
      </trkpt>
      <trkpt lat="43.5433" lon="6.26306">
        <ele>268.8</ele>
        <time>2017-01-04T14:27:35Z</time>
      </trkpt>
      <trkpt lat="43.54335" lon="6.26317">
        <ele>269.5</ele>
        <time>2017-01-04T14:27:44Z</time>
      </trkpt>
      <trkpt lat="43.5434" lon="6.26329">
        <ele>269.8</ele>
        <time>2017-01-04T14:27:53Z</time>
      </trkpt>
      <trkpt lat="43.5434" lon="6.26343">
        <ele>269.6</ele>
        <time>2017-01-04T14:28:04Z</time>
      </trkpt>
      <trkpt lat="43.54343" lon="6.26355">
        <ele>270.5</ele>
        <time>2017-01-04T14:28:12Z</time>
      </trkpt>
      <trkpt lat="43.54342" lon="6.26368">
        <ele>271.7</ele>
        <time>2017-01-04T14:28:24Z</time>
      </trkpt>
      <trkpt lat="43.54341" lon="6.26381">
        <ele>272.8</ele>
        <time>2017-01-04T14:28:37Z</time>
      </trkpt>
      <trkpt lat="43.54338" lon="6.26393">
        <ele>274.9</ele>
        <time>2017-01-04T14:28:48Z</time>
      </trkpt>
      <trkpt lat="43.54333" lon="6.26404">
        <ele>276.3</ele>
        <time>2017-01-04T14:29:01Z</time>
      </trkpt>
      <trkpt lat="43.5433" lon="6.26416">
        <ele>278.4</ele>
        <time>2017-01-04T14:29:23Z</time>
      </trkpt>
      <trkpt lat="43.54332" lon="6.26428">
        <ele>279.9</ele>
        <time>2017-01-04T14:29:44Z</time>
      </trkpt>
      <trkpt lat="43.54334" lon="6.2644">
        <ele>283.4</ele>
        <time>2017-01-04T14:31:03Z</time>
      </trkpt>
      <trkpt lat="43.54336" lon="6.26453">
        <ele>284</ele>
        <time>2017-01-04T14:31:17Z</time>
      </trkpt>
      <trkpt lat="43.54335" lon="6.26465">
        <ele>284.1</ele>
        <time>2017-01-04T14:31:37Z</time>
      </trkpt>
      <trkpt lat="43.54335" lon="6.26478">
        <ele>285.3</ele>
        <time>2017-01-04T14:31:55Z</time>
      </trkpt>
      <trkpt lat="43.54338" lon="6.26491">
        <ele>287.1</ele>
        <time>2017-01-04T14:32:08Z</time>
      </trkpt>
      <trkpt lat="43.5434" lon="6.26503">
        <ele>288.7</ele>
        <time>2017-01-04T14:32:25Z</time>
      </trkpt>
      <trkpt lat="43.54337" lon="6.26515">
        <ele>291.2</ele>
        <time>2017-01-04T14:32:45Z</time>
      </trkpt>
      <trkpt lat="43.54332" lon="6.26525">
        <ele>293</ele>
        <time>2017-01-04T14:32:58Z</time>
      </trkpt>
      <trkpt lat="43.54327" lon="6.26536">
        <ele>296.1</ele>
        <time>2017-01-04T14:33:20Z</time>
      </trkpt>
      <trkpt lat="43.54325" lon="6.26548">
        <ele>298.7</ele>
        <time>2017-01-04T14:33:36Z</time>
      </trkpt>
      <trkpt lat="43.54327" lon="6.26561">
        <ele>301.4</ele>
        <time>2017-01-04T14:33:59Z</time>
      </trkpt>
      <trkpt lat="43.54326" lon="6.26573">
        <ele>305.1</ele>
        <time>2017-01-04T14:34:22Z</time>
      </trkpt>
      <trkpt lat="43.54325" lon="6.26586">
        <ele>307.6</ele>
        <time>2017-01-04T14:34:44Z</time>
      </trkpt>
      <trkpt lat="43.54332" lon="6.26595">
        <ele>310.1</ele>
        <time>2017-01-04T14:35:01Z</time>
      </trkpt>
      <trkpt lat="43.54328" lon="6.26607">
        <ele>312.6</ele>
        <time>2017-01-04T14:35:17Z</time>
      </trkpt>
      <trkpt lat="43.54324" lon="6.26619">
        <ele>316</ele>
        <time>2017-01-04T14:35:37Z</time>
      </trkpt>
      <trkpt lat="43.54329" lon="6.2663">
        <ele>318.3</ele>
        <time>2017-01-04T14:35:54Z</time>
      </trkpt>
      <trkpt lat="43.5432" lon="6.26626">
        <ele>322.9</ele>
        <time>2017-01-04T14:36:41Z</time>
      </trkpt>
      <trkpt lat="43.54312" lon="6.2662">
        <ele>324.4</ele>
        <time>2017-01-04T14:36:56Z</time>
      </trkpt>
      <trkpt lat="43.54303" lon="6.26616">
        <ele>327</ele>
        <time>2017-01-04T14:37:18Z</time>
      </trkpt>
      <trkpt lat="43.54294" lon="6.26614">
        <ele>328.9</ele>
        <time>2017-01-04T14:37:33Z</time>
      </trkpt>
      <trkpt lat="43.54303" lon="6.26617">
        <ele>330.4</ele>
        <time>2017-01-04T14:37:47Z</time>
      </trkpt>
      <trkpt lat="43.54299" lon="6.26629">
        <ele>332.8</ele>
        <time>2017-01-04T14:38:03Z</time>
      </trkpt>
      <trkpt lat="43.54296" lon="6.26642">
        <ele>335.4</ele>
        <time>2017-01-04T14:38:19Z</time>
      </trkpt>
      <trkpt lat="43.54298" lon="6.26654">
        <ele>337.5</ele>
        <time>2017-01-04T14:38:34Z</time>
      </trkpt>
      <trkpt lat="43.54298" lon="6.26666">
        <ele>340.1</ele>
        <time>2017-01-04T14:38:51Z</time>
      </trkpt>
      <trkpt lat="43.54295" lon="6.26679">
        <ele>342.8</ele>
        <time>2017-01-04T14:39:06Z</time>
      </trkpt>
      <trkpt lat="43.54297" lon="6.26691">
        <ele>344.4</ele>
        <time>2017-01-04T14:39:26Z</time>
      </trkpt>
      <trkpt lat="43.54303" lon="6.267">
        <ele>345.4</ele>
        <time>2017-01-04T14:39:36Z</time>
      </trkpt>
      <trkpt lat="43.54304" lon="6.26713">
        <ele>347.3</ele>
        <time>2017-01-04T14:39:51Z</time>
      </trkpt>
      <trkpt lat="43.54309" lon="6.26724">
        <ele>348.1</ele>
        <time>2017-01-04T14:40:00Z</time>
      </trkpt>
      <trkpt lat="43.5431" lon="6.26736">
        <ele>348.8</ele>
        <time>2017-01-04T14:40:10Z</time>
      </trkpt>
      <trkpt lat="43.54306" lon="6.26748">
        <ele>350.1</ele>
        <time>2017-01-04T14:40:21Z</time>
      </trkpt>
      <trkpt lat="43.54304" lon="6.2676">
        <ele>351</ele>
        <time>2017-01-04T14:40:32Z</time>
      </trkpt>
      <trkpt lat="43.543" lon="6.26773">
        <ele>352.3</ele>
        <time>2017-01-04T14:40:48Z</time>
      </trkpt>
      <trkpt lat="43.54301" lon="6.26785">
        <ele>353.6</ele>
        <time>2017-01-04T14:41:12Z</time>
      </trkpt>
      <trkpt lat="43.54304" lon="6.26797">
        <ele>354.7</ele>
        <time>2017-01-04T14:41:26Z</time>
      </trkpt>
      <trkpt lat="43.54296" lon="6.26792">
        <ele>358.3</ele>
        <time>2017-01-04T14:41:59Z</time>
      </trkpt>
      <trkpt lat="43.54289" lon="6.26783">
        <ele>360.7</ele>
        <time>2017-01-04T14:42:15Z</time>
      </trkpt>
      <trkpt lat="43.54286" lon="6.26771">
        <ele>362.4</ele>
        <time>2017-01-04T14:42:30Z</time>
      </trkpt>
      <trkpt lat="43.5428" lon="6.2676">
        <ele>363.6</ele>
        <time>2017-01-04T14:42:42Z</time>
      </trkpt>
      <trkpt lat="43.54276" lon="6.26749">
        <ele>365.9</ele>
        <time>2017-01-04T14:43:03Z</time>
      </trkpt>
      <trkpt lat="43.54267" lon="6.26744">
        <ele>368.8</ele>
        <time>2017-01-04T14:43:26Z</time>
      </trkpt>
      <trkpt lat="43.54262" lon="6.26755">
        <ele>374.3</ele>
        <time>2017-01-04T14:44:01Z</time>
      </trkpt>
      <trkpt lat="43.54259" lon="6.26767">
        <ele>376.7</ele>
        <time>2017-01-04T14:44:21Z</time>
      </trkpt>
      <trkpt lat="43.54256" lon="6.26779">
        <ele>381</ele>
        <time>2017-01-04T14:44:45Z</time>
      </trkpt>
      <trkpt lat="43.54254" lon="6.26791">
        <ele>383.9</ele>
        <time>2017-01-04T14:45:02Z</time>
      </trkpt>
      <trkpt lat="43.5425" lon="6.26803">
        <ele>384.7</ele>
        <time>2017-01-04T14:45:12Z</time>
      </trkpt>
      <trkpt lat="43.54252" lon="6.26815">
        <ele>385</ele>
        <time>2017-01-04T14:45:25Z</time>
      </trkpt>
      <trkpt lat="43.54254" lon="6.26829">
        <ele>385.4</ele>
        <time>2017-01-04T14:45:37Z</time>
      </trkpt>
      <trkpt lat="43.54258" lon="6.2684">
        <ele>385.6</ele>
        <time>2017-01-04T14:45:47Z</time>
      </trkpt>
      <trkpt lat="43.54261" lon="6.26852">
        <ele>384.8</ele>
        <time>2017-01-04T14:45:57Z</time>
      </trkpt>
      <trkpt lat="43.54262" lon="6.26864">
        <ele>384.5</ele>
        <time>2017-01-04T14:46:06Z</time>
      </trkpt>
      <trkpt lat="43.54262" lon="6.26877">
        <ele>384.4</ele>
        <time>2017-01-04T14:46:18Z</time>
      </trkpt>
      <trkpt lat="43.54263" lon="6.26889">
        <ele>384.4</ele>
        <time>2017-01-04T14:46:53Z</time>
      </trkpt>
      <trkpt lat="43.5426" lon="6.26901">
        <ele>386</ele>
        <time>2017-01-04T14:47:18Z</time>
      </trkpt>
      <trkpt lat="43.54253" lon="6.2691">
        <ele>388</ele>
        <time>2017-01-04T14:47:39Z</time>
      </trkpt>
      <trkpt lat="43.54251" lon="6.26922">
        <ele>390.6</ele>
        <time>2017-01-04T14:48:00Z</time>
      </trkpt>
      <trkpt lat="43.54245" lon="6.26932">
        <ele>394.4</ele>
        <time>2017-01-04T14:48:20Z</time>
      </trkpt>
      <trkpt lat="43.54238" lon="6.26941">
        <ele>396.3</ele>
        <time>2017-01-04T14:48:35Z</time>
      </trkpt>
      <trkpt lat="43.54229" lon="6.26944">
        <ele>398.4</ele>
        <time>2017-01-04T14:48:48Z</time>
      </trkpt>
      <trkpt lat="43.54228" lon="6.26956">
        <ele>401.1</ele>
        <time>2017-01-04T14:49:07Z</time>
      </trkpt>
      <trkpt lat="43.54221" lon="6.26965">
        <ele>404.3</ele>
        <time>2017-01-04T14:49:27Z</time>
      </trkpt>
      <trkpt lat="43.54214" lon="6.26974">
        <ele>405.9</ele>
        <time>2017-01-04T14:49:38Z</time>
      </trkpt>
      <trkpt lat="43.54208" lon="6.26982">
        <ele>407.8</ele>
        <time>2017-01-04T14:49:49Z</time>
      </trkpt>
      <trkpt lat="43.54201" lon="6.26991">
        <ele>410.1</ele>
        <time>2017-01-04T14:50:19Z</time>
      </trkpt>
      <trkpt lat="43.542" lon="6.27004">
        <ele>411.4</ele>
        <time>2017-01-04T14:55:25Z</time>
      </trkpt>
      <trkpt lat="43.54194" lon="6.27014">
        <ele>412.4</ele>
        <time>2017-01-04T14:55:34Z</time>
      </trkpt>
      <trkpt lat="43.54191" lon="6.27025">
        <ele>412.7</ele>
        <time>2017-01-04T14:55:44Z</time>
      </trkpt>
      <trkpt lat="43.54186" lon="6.27036">
        <ele>412.9</ele>
        <time>2017-01-04T14:55:52Z</time>
      </trkpt>
      <trkpt lat="43.54178" lon="6.27045">
        <ele>413.1</ele>
        <time>2017-01-04T14:56:00Z</time>
      </trkpt>
      <trkpt lat="43.54173" lon="6.27056">
        <ele>412.7</ele>
        <time>2017-01-04T14:56:10Z</time>
      </trkpt>
      <trkpt lat="43.54168" lon="6.27067">
        <ele>412.1</ele>
        <time>2017-01-04T14:56:18Z</time>
      </trkpt>
      <trkpt lat="43.54165" lon="6.2708">
        <ele>411.4</ele>
        <time>2017-01-04T14:56:27Z</time>
      </trkpt>
      <trkpt lat="43.54163" lon="6.27093">
        <ele>410.4</ele>
        <time>2017-01-04T14:56:36Z</time>
      </trkpt>
      <trkpt lat="43.5416" lon="6.27106">
        <ele>409.9</ele>
        <time>2017-01-04T14:56:45Z</time>
      </trkpt>
      <trkpt lat="43.54158" lon="6.27119">
        <ele>409.3</ele>
        <time>2017-01-04T14:56:53Z</time>
      </trkpt>
      <trkpt lat="43.54153" lon="6.27132">
        <ele>408.1</ele>
        <time>2017-01-04T14:57:02Z</time>
      </trkpt>
      <trkpt lat="43.54148" lon="6.27142">
        <ele>407.8</ele>
        <time>2017-01-04T14:57:08Z</time>
      </trkpt>
      <trkpt lat="43.54144" lon="6.27155">
        <ele>407.3</ele>
        <time>2017-01-04T14:57:16Z</time>
      </trkpt>
      <trkpt lat="43.54141" lon="6.27168">
        <ele>407.4</ele>
        <time>2017-01-04T14:57:24Z</time>
      </trkpt>
      <trkpt lat="43.54138" lon="6.2718">
        <ele>407.4</ele>
        <time>2017-01-04T14:57:32Z</time>
      </trkpt>
      <trkpt lat="43.54134" lon="6.27192">
        <ele>407.2</ele>
        <time>2017-01-04T14:57:41Z</time>
      </trkpt>
      <trkpt lat="43.54127" lon="6.27202">
        <ele>407.3</ele>
        <time>2017-01-04T14:57:48Z</time>
      </trkpt>
      <trkpt lat="43.54121" lon="6.27212">
        <ele>407.5</ele>
        <time>2017-01-04T14:57:56Z</time>
      </trkpt>
      <trkpt lat="43.54115" lon="6.27222">
        <ele>407.9</ele>
        <time>2017-01-04T14:58:05Z</time>
      </trkpt>
      <trkpt lat="43.54109" lon="6.27231">
        <ele>408.2</ele>
        <time>2017-01-04T14:58:11Z</time>
      </trkpt>
      <trkpt lat="43.54103" lon="6.27242">
        <ele>408.6</ele>
        <time>2017-01-04T14:58:20Z</time>
      </trkpt>
      <trkpt lat="43.54097" lon="6.27252">
        <ele>408.4</ele>
        <time>2017-01-04T14:58:28Z</time>
      </trkpt>
      <trkpt lat="43.5409" lon="6.27261">
        <ele>408.9</ele>
        <time>2017-01-04T14:58:38Z</time>
      </trkpt>
      <trkpt lat="43.54085" lon="6.27272">
        <ele>409.9</ele>
        <time>2017-01-04T14:58:47Z</time>
      </trkpt>
      <trkpt lat="43.5408" lon="6.27283">
        <ele>410.1</ele>
        <time>2017-01-04T14:58:55Z</time>
      </trkpt>
      <trkpt lat="43.54073" lon="6.27293">
        <ele>410.9</ele>
        <time>2017-01-04T14:59:04Z</time>
      </trkpt>
      <trkpt lat="43.54068" lon="6.27305">
        <ele>411.6</ele>
        <time>2017-01-04T14:59:14Z</time>
      </trkpt>
      <trkpt lat="43.54063" lon="6.27316">
        <ele>412.8</ele>
        <time>2017-01-04T14:59:23Z</time>
      </trkpt>
      <trkpt lat="43.54058" lon="6.27326">
        <ele>413.9</ele>
        <time>2017-01-04T14:59:32Z</time>
      </trkpt>
      <trkpt lat="43.54049" lon="6.27334">
        <ele>414.2</ele>
        <time>2017-01-04T14:59:40Z</time>
      </trkpt>
      <trkpt lat="43.5404" lon="6.27341">
        <ele>414.2</ele>
        <time>2017-01-04T14:59:47Z</time>
      </trkpt>
      <trkpt lat="43.54033" lon="6.2735">
        <ele>414.7</ele>
        <time>2017-01-04T14:59:54Z</time>
      </trkpt>
      <trkpt lat="43.54025" lon="6.27359">
        <ele>415.1</ele>
        <time>2017-01-04T15:00:01Z</time>
      </trkpt>
      <trkpt lat="43.54018" lon="6.27369">
        <ele>415.3</ele>
        <time>2017-01-04T15:00:07Z</time>
      </trkpt>
      <trkpt lat="43.54014" lon="6.2738">
        <ele>415.2</ele>
        <time>2017-01-04T15:00:15Z</time>
      </trkpt>
      <trkpt lat="43.54008" lon="6.2739">
        <ele>415</ele>
        <time>2017-01-04T15:00:23Z</time>
      </trkpt>
      <trkpt lat="43.54003" lon="6.27401">
        <ele>415</ele>
        <time>2017-01-04T15:00:31Z</time>
      </trkpt>
      <trkpt lat="43.53998" lon="6.27413">
        <ele>414.6</ele>
        <time>2017-01-04T15:00:39Z</time>
      </trkpt>
      <trkpt lat="43.53991" lon="6.27423">
        <ele>414.5</ele>
        <time>2017-01-04T15:00:47Z</time>
      </trkpt>
      <trkpt lat="43.53984" lon="6.27432">
        <ele>413.9</ele>
        <time>2017-01-04T15:00:54Z</time>
      </trkpt>
      <trkpt lat="43.53978" lon="6.27443">
        <ele>413.8</ele>
        <time>2017-01-04T15:01:02Z</time>
      </trkpt>
      <trkpt lat="43.53971" lon="6.27451">
        <ele>413.9</ele>
        <time>2017-01-04T15:01:12Z</time>
      </trkpt>
      <trkpt lat="43.53968" lon="6.27465">
        <ele>414.6</ele>
        <time>2017-01-04T15:01:24Z</time>
      </trkpt>
      <trkpt lat="43.53964" lon="6.27476">
        <ele>415</ele>
        <time>2017-01-04T15:01:33Z</time>
      </trkpt>
      <trkpt lat="43.53958" lon="6.27485">
        <ele>415.4</ele>
        <time>2017-01-04T15:01:40Z</time>
      </trkpt>
      <trkpt lat="43.53951" lon="6.27495">
        <ele>416.1</ele>
        <time>2017-01-04T15:01:49Z</time>
      </trkpt>
      <trkpt lat="43.53945" lon="6.27504">
        <ele>418.1</ele>
        <time>2017-01-04T15:02:07Z</time>
      </trkpt>
      <trkpt lat="43.53936" lon="6.27503">
        <ele>419</ele>
        <time>2017-01-04T15:02:42Z</time>
      </trkpt>
      <trkpt lat="43.53937" lon="6.27516">
        <ele>418.9</ele>
        <time>2017-01-04T15:04:22Z</time>
      </trkpt>
      <trkpt lat="43.53942" lon="6.27528">
        <ele>418.9</ele>
        <time>2017-01-04T15:04:33Z</time>
      </trkpt>
      <trkpt lat="43.53943" lon="6.27541">
        <ele>419.1</ele>
        <time>2017-01-04T15:04:54Z</time>
      </trkpt>
      <trkpt lat="43.53951" lon="6.27548">
        <ele>419.1</ele>
        <time>2017-01-04T15:05:22Z</time>
      </trkpt>
      <trkpt lat="43.5396" lon="6.27552">
        <ele>419.4</ele>
        <time>2017-01-04T15:05:33Z</time>
      </trkpt>
      <trkpt lat="43.53965" lon="6.27562">
        <ele>420.2</ele>
        <time>2017-01-04T15:05:44Z</time>
      </trkpt>
      <trkpt lat="43.53966" lon="6.27575">
        <ele>420</ele>
        <time>2017-01-04T15:05:54Z</time>
      </trkpt>
      <trkpt lat="43.53966" lon="6.27588">
        <ele>419.7</ele>
        <time>2017-01-04T15:06:03Z</time>
      </trkpt>
      <trkpt lat="43.53968" lon="6.27601">
        <ele>419.7</ele>
        <time>2017-01-04T15:06:11Z</time>
      </trkpt>
      <trkpt lat="43.53969" lon="6.27614">
        <ele>418.9</ele>
        <time>2017-01-04T15:06:22Z</time>
      </trkpt>
      <trkpt lat="43.53971" lon="6.27626">
        <ele>418.3</ele>
        <time>2017-01-04T15:06:31Z</time>
      </trkpt>
      <trkpt lat="43.5397" lon="6.27639">
        <ele>417.6</ele>
        <time>2017-01-04T15:06:43Z</time>
      </trkpt>
      <trkpt lat="43.5397" lon="6.27653">
        <ele>417.2</ele>
        <time>2017-01-04T15:06:55Z</time>
      </trkpt>
      <trkpt lat="43.53969" lon="6.27665">
        <ele>417</ele>
        <time>2017-01-04T15:07:07Z</time>
      </trkpt>
      <trkpt lat="43.53969" lon="6.27678">
        <ele>416.5</ele>
        <time>2017-01-04T15:07:15Z</time>
      </trkpt>
      <trkpt lat="43.53969" lon="6.27692">
        <ele>416.6</ele>
        <time>2017-01-04T15:07:23Z</time>
      </trkpt>
      <trkpt lat="43.53967" lon="6.27705">
        <ele>416.8</ele>
        <time>2017-01-04T15:07:31Z</time>
      </trkpt>
      <trkpt lat="43.53966" lon="6.27718">
        <ele>416.5</ele>
        <time>2017-01-04T15:07:39Z</time>
      </trkpt>
      <trkpt lat="43.53964" lon="6.27732">
        <ele>416.5</ele>
        <time>2017-01-04T15:07:47Z</time>
      </trkpt>
      <trkpt lat="43.53964" lon="6.27746">
        <ele>416.5</ele>
        <time>2017-01-04T15:07:55Z</time>
      </trkpt>
      <trkpt lat="43.53962" lon="6.27758">
        <ele>416.5</ele>
        <time>2017-01-04T15:08:03Z</time>
      </trkpt>
      <trkpt lat="43.53962" lon="6.27771">
        <ele>416.2</ele>
        <time>2017-01-04T15:08:12Z</time>
      </trkpt>
      <trkpt lat="43.53961" lon="6.27784">
        <ele>415.8</ele>
        <time>2017-01-04T15:08:21Z</time>
      </trkpt>
      <trkpt lat="43.53964" lon="6.27796">
        <ele>416.3</ele>
        <time>2017-01-04T15:08:27Z</time>
      </trkpt>
      <trkpt lat="43.53966" lon="6.2781">
        <ele>417</ele>
        <time>2017-01-04T15:08:34Z</time>
      </trkpt>
      <trkpt lat="43.53966" lon="6.27823">
        <ele>417.6</ele>
        <time>2017-01-04T15:08:43Z</time>
      </trkpt>
      <trkpt lat="43.53962" lon="6.27836">
        <ele>418</ele>
        <time>2017-01-04T15:08:51Z</time>
      </trkpt>
      <trkpt lat="43.53961" lon="6.27848">
        <ele>418.3</ele>
        <time>2017-01-04T15:09:00Z</time>
      </trkpt>
      <trkpt lat="43.53957" lon="6.2786">
        <ele>418.7</ele>
        <time>2017-01-04T15:09:09Z</time>
      </trkpt>
      <trkpt lat="43.53958" lon="6.27873">
        <ele>418.8</ele>
        <time>2017-01-04T15:09:17Z</time>
      </trkpt>
      <trkpt lat="43.53956" lon="6.27885">
        <ele>419.2</ele>
        <time>2017-01-04T15:09:25Z</time>
      </trkpt>
      <trkpt lat="43.53954" lon="6.27898">
        <ele>419.4</ele>
        <time>2017-01-04T15:09:33Z</time>
      </trkpt>
      <trkpt lat="43.53954" lon="6.27911">
        <ele>419.7</ele>
        <time>2017-01-04T15:09:40Z</time>
      </trkpt>
      <trkpt lat="43.53951" lon="6.27924">
        <ele>419.9</ele>
        <time>2017-01-04T15:09:49Z</time>
      </trkpt>
      <trkpt lat="43.53948" lon="6.27937">
        <ele>420.2</ele>
        <time>2017-01-04T15:09:57Z</time>
      </trkpt>
      <trkpt lat="43.53945" lon="6.2795">
        <ele>420.6</ele>
        <time>2017-01-04T15:10:05Z</time>
      </trkpt>
      <trkpt lat="43.53942" lon="6.27963">
        <ele>421.1</ele>
        <time>2017-01-04T15:10:13Z</time>
      </trkpt>
      <trkpt lat="43.53939" lon="6.27975">
        <ele>421.5</ele>
        <time>2017-01-04T15:10:21Z</time>
      </trkpt>
      <trkpt lat="43.53931" lon="6.2798">
        <ele>422.2</ele>
        <time>2017-01-04T15:11:08Z</time>
      </trkpt>
      <trkpt lat="43.53932" lon="6.27993">
        <ele>421.6</ele>
        <time>2017-01-04T15:12:30Z</time>
      </trkpt>
      <trkpt lat="43.5393" lon="6.28005">
        <ele>421.7</ele>
        <time>2017-01-04T15:12:41Z</time>
      </trkpt>
      <trkpt lat="43.53927" lon="6.28018">
        <ele>421.8</ele>
        <time>2017-01-04T15:12:51Z</time>
      </trkpt>
      <trkpt lat="43.53924" lon="6.28031">
        <ele>422.2</ele>
        <time>2017-01-04T15:13:01Z</time>
      </trkpt>
      <trkpt lat="43.53922" lon="6.28044">
        <ele>422.4</ele>
        <time>2017-01-04T15:13:10Z</time>
      </trkpt>
      <trkpt lat="43.5392" lon="6.28058">
        <ele>422.5</ele>
        <time>2017-01-04T15:13:18Z</time>
      </trkpt>
      <trkpt lat="43.53918" lon="6.28071">
        <ele>422.7</ele>
        <time>2017-01-04T15:13:27Z</time>
      </trkpt>
      <trkpt lat="43.53916" lon="6.28084">
        <ele>422.8</ele>
        <time>2017-01-04T15:13:37Z</time>
      </trkpt>
      <trkpt lat="43.53913" lon="6.28097">
        <ele>423.1</ele>
        <time>2017-01-04T15:13:46Z</time>
      </trkpt>
      <trkpt lat="43.53908" lon="6.28108">
        <ele>423.5</ele>
        <time>2017-01-04T15:13:58Z</time>
      </trkpt>
      <trkpt lat="43.53901" lon="6.28115">
        <ele>423.3</ele>
        <time>2017-01-04T15:14:07Z</time>
      </trkpt>
      <trkpt lat="43.53893" lon="6.28122">
        <ele>422.4</ele>
        <time>2017-01-04T15:14:16Z</time>
      </trkpt>
      <trkpt lat="43.53885" lon="6.28129">
        <ele>421.7</ele>
        <time>2017-01-04T15:14:24Z</time>
      </trkpt>
      <trkpt lat="43.53877" lon="6.28135">
        <ele>420.7</ele>
        <time>2017-01-04T15:14:32Z</time>
      </trkpt>
      <trkpt lat="43.53867" lon="6.2814">
        <ele>420.1</ele>
        <time>2017-01-04T15:14:39Z</time>
      </trkpt>
      <trkpt lat="43.53859" lon="6.28149">
        <ele>418.8</ele>
        <time>2017-01-04T15:14:46Z</time>
      </trkpt>
      <trkpt lat="43.53852" lon="6.28158">
        <ele>417.6</ele>
        <time>2017-01-04T15:14:55Z</time>
      </trkpt>
      <trkpt lat="43.53845" lon="6.28167">
        <ele>417.4</ele>
        <time>2017-01-04T15:15:04Z</time>
      </trkpt>
      <trkpt lat="43.53837" lon="6.28174">
        <ele>417.4</ele>
        <time>2017-01-04T15:15:13Z</time>
      </trkpt>
      <trkpt lat="43.5383" lon="6.28184">
        <ele>417.1</ele>
        <time>2017-01-04T15:15:22Z</time>
      </trkpt>
      <trkpt lat="43.53825" lon="6.28195">
        <ele>416.7</ele>
        <time>2017-01-04T15:15:29Z</time>
      </trkpt>
      <trkpt lat="43.53822" lon="6.28207">
        <ele>416.5</ele>
        <time>2017-01-04T15:15:36Z</time>
      </trkpt>
      <trkpt lat="43.5382" lon="6.2822">
        <ele>416.5</ele>
        <time>2017-01-04T15:15:45Z</time>
      </trkpt>
      <trkpt lat="43.53817" lon="6.28233">
        <ele>415.8</ele>
        <time>2017-01-04T15:15:53Z</time>
      </trkpt>
      <trkpt lat="43.53811" lon="6.28244">
        <ele>415.1</ele>
        <time>2017-01-04T15:16:00Z</time>
      </trkpt>
      <trkpt lat="43.53807" lon="6.28256">
        <ele>414.7</ele>
        <time>2017-01-04T15:16:07Z</time>
      </trkpt>
      <trkpt lat="43.53801" lon="6.28267">
        <ele>414.3</ele>
        <time>2017-01-04T15:16:15Z</time>
      </trkpt>
      <trkpt lat="43.53796" lon="6.28277">
        <ele>414.1</ele>
        <time>2017-01-04T15:16:23Z</time>
      </trkpt>
      <trkpt lat="43.5379" lon="6.28288">
        <ele>414</ele>
        <time>2017-01-04T15:16:31Z</time>
      </trkpt>
      <trkpt lat="43.53785" lon="6.283">
        <ele>413.9</ele>
        <time>2017-01-04T15:16:40Z</time>
      </trkpt>
      <trkpt lat="43.53779" lon="6.2831">
        <ele>413.3</ele>
        <time>2017-01-04T15:16:49Z</time>
      </trkpt>
      <trkpt lat="43.53775" lon="6.28322">
        <ele>413</ele>
        <time>2017-01-04T15:16:58Z</time>
      </trkpt>
      <trkpt lat="43.53776" lon="6.28335">
        <ele>413.2</ele>
        <time>2017-01-04T15:17:07Z</time>
      </trkpt>
      <trkpt lat="43.53778" lon="6.28347">
        <ele>413.7</ele>
        <time>2017-01-04T15:17:25Z</time>
      </trkpt>
      <trkpt lat="43.53769" lon="6.28352">
        <ele>413.8</ele>
        <time>2017-01-04T15:18:42Z</time>
      </trkpt>
      <trkpt lat="43.53762" lon="6.28344">
        <ele>413.5</ele>
        <time>2017-01-04T15:18:50Z</time>
      </trkpt>
      <trkpt lat="43.53756" lon="6.28334">
        <ele>413.2</ele>
        <time>2017-01-04T15:18:59Z</time>
      </trkpt>
      <trkpt lat="43.53749" lon="6.28325">
        <ele>412.7</ele>
        <time>2017-01-04T15:19:09Z</time>
      </trkpt>
      <trkpt lat="43.53743" lon="6.28314">
        <ele>412.4</ele>
        <time>2017-01-04T15:19:19Z</time>
      </trkpt>
      <trkpt lat="43.53738" lon="6.28303">
        <ele>412.2</ele>
        <time>2017-01-04T15:19:28Z</time>
      </trkpt>
      <trkpt lat="43.53732" lon="6.28293">
        <ele>412.4</ele>
        <time>2017-01-04T15:19:36Z</time>
      </trkpt>
      <trkpt lat="43.53725" lon="6.28283">
        <ele>412.6</ele>
        <time>2017-01-04T15:19:44Z</time>
      </trkpt>
      <trkpt lat="43.53718" lon="6.28275">
        <ele>412.5</ele>
        <time>2017-01-04T15:19:51Z</time>
      </trkpt>
      <trkpt lat="43.5371" lon="6.28266">
        <ele>412.7</ele>
        <time>2017-01-04T15:20:01Z</time>
      </trkpt>
      <trkpt lat="43.53701" lon="6.28262">
        <ele>413</ele>
        <time>2017-01-04T15:20:11Z</time>
      </trkpt>
      <trkpt lat="43.53693" lon="6.28255">
        <ele>413.1</ele>
        <time>2017-01-04T15:20:20Z</time>
      </trkpt>
      <trkpt lat="43.53686" lon="6.28248">
        <ele>412.8</ele>
        <time>2017-01-04T15:20:28Z</time>
      </trkpt>
      <trkpt lat="43.53678" lon="6.28241">
        <ele>412.6</ele>
        <time>2017-01-04T15:20:36Z</time>
      </trkpt>
      <trkpt lat="43.53669" lon="6.28235">
        <ele>412.1</ele>
        <time>2017-01-04T15:20:44Z</time>
      </trkpt>
      <trkpt lat="43.53662" lon="6.28226">
        <ele>411.2</ele>
        <time>2017-01-04T15:20:53Z</time>
      </trkpt>
      <trkpt lat="43.53653" lon="6.2822">
        <ele>410.8</ele>
        <time>2017-01-04T15:21:01Z</time>
      </trkpt>
      <trkpt lat="43.53644" lon="6.28217">
        <ele>409.6</ele>
        <time>2017-01-04T15:21:10Z</time>
      </trkpt>
      <trkpt lat="43.53635" lon="6.28212">
        <ele>408.3</ele>
        <time>2017-01-04T15:21:22Z</time>
      </trkpt>
      <trkpt lat="43.53626" lon="6.28211">
        <ele>406.6</ele>
        <time>2017-01-04T15:21:35Z</time>
      </trkpt>
      <trkpt lat="43.53616" lon="6.28213">
        <ele>405.5</ele>
        <time>2017-01-04T15:21:45Z</time>
      </trkpt>
      <trkpt lat="43.53606" lon="6.28215">
        <ele>403.9</ele>
        <time>2017-01-04T15:21:56Z</time>
      </trkpt>
      <trkpt lat="43.53597" lon="6.28219">
        <ele>403.1</ele>
        <time>2017-01-04T15:22:05Z</time>
      </trkpt>
      <trkpt lat="43.53588" lon="6.2822">
        <ele>402.7</ele>
        <time>2017-01-04T15:22:14Z</time>
      </trkpt>
      <trkpt lat="43.53578" lon="6.28223">
        <ele>401.7</ele>
        <time>2017-01-04T15:22:23Z</time>
      </trkpt>
      <trkpt lat="43.5357" lon="6.28227">
        <ele>400.6</ele>
        <time>2017-01-04T15:22:31Z</time>
      </trkpt>
      <trkpt lat="43.53561" lon="6.28231">
        <ele>400.1</ele>
        <time>2017-01-04T15:22:38Z</time>
      </trkpt>
      <trkpt lat="43.53552" lon="6.28237">
        <ele>399</ele>
        <time>2017-01-04T15:22:47Z</time>
      </trkpt>
      <trkpt lat="43.53543" lon="6.28243">
        <ele>397.6</ele>
        <time>2017-01-04T15:22:57Z</time>
      </trkpt>
      <trkpt lat="43.53533" lon="6.28246">
        <ele>396.8</ele>
        <time>2017-01-04T15:23:05Z</time>
      </trkpt>
      <trkpt lat="43.53523" lon="6.28244">
        <ele>395.9</ele>
        <time>2017-01-04T15:23:14Z</time>
      </trkpt>
      <trkpt lat="43.53513" lon="6.28246">
        <ele>395.2</ele>
        <time>2017-01-04T15:23:22Z</time>
      </trkpt>
      <trkpt lat="43.53503" lon="6.28248">
        <ele>394.1</ele>
        <time>2017-01-04T15:23:32Z</time>
      </trkpt>
      <trkpt lat="43.53494" lon="6.28248">
        <ele>392.6</ele>
        <time>2017-01-04T15:23:49Z</time>
      </trkpt>
      <trkpt lat="43.53486" lon="6.28254">
        <ele>392.1</ele>
        <time>2017-01-04T15:24:05Z</time>
      </trkpt>
      <trkpt lat="43.53485" lon="6.28267">
        <ele>391.3</ele>
        <time>2017-01-04T15:24:17Z</time>
      </trkpt>
      <trkpt lat="43.53488" lon="6.28279">
        <ele>390.6</ele>
        <time>2017-01-04T15:24:27Z</time>
      </trkpt>
      <trkpt lat="43.53481" lon="6.28288">
        <ele>389.6</ele>
        <time>2017-01-04T15:24:37Z</time>
      </trkpt>
      <trkpt lat="43.53472" lon="6.28289">
        <ele>388.4</ele>
        <time>2017-01-04T15:24:47Z</time>
      </trkpt>
      <trkpt lat="43.53462" lon="6.28288">
        <ele>387.3</ele>
        <time>2017-01-04T15:24:57Z</time>
      </trkpt>
      <trkpt lat="43.53453" lon="6.28289">
        <ele>386.1</ele>
        <time>2017-01-04T15:25:05Z</time>
      </trkpt>
      <trkpt lat="43.53443" lon="6.28289">
        <ele>385.1</ele>
        <time>2017-01-04T15:25:14Z</time>
      </trkpt>
      <trkpt lat="43.53434" lon="6.28288">
        <ele>383.7</ele>
        <time>2017-01-04T15:25:26Z</time>
      </trkpt>
      <trkpt lat="43.53443" lon="6.28288">
        <ele>382.4</ele>
        <time>2017-01-04T15:26:10Z</time>
      </trkpt>
      <trkpt lat="43.53452" lon="6.28289">
        <ele>383</ele>
        <time>2017-01-04T15:26:26Z</time>
      </trkpt>
      <trkpt lat="43.53462" lon="6.28287">
        <ele>383.9</ele>
        <time>2017-01-04T15:26:45Z</time>
      </trkpt>
      <trkpt lat="43.53471" lon="6.2829">
        <ele>385.4</ele>
        <time>2017-01-04T15:26:59Z</time>
      </trkpt>
      <trkpt lat="43.5348" lon="6.2829">
        <ele>386.5</ele>
        <time>2017-01-04T15:27:15Z</time>
      </trkpt>
      <trkpt lat="43.53489" lon="6.28295">
        <ele>388.3</ele>
        <time>2017-01-04T15:27:29Z</time>
      </trkpt>
      <trkpt lat="43.53496" lon="6.28305">
        <ele>389.7</ele>
        <time>2017-01-04T15:27:42Z</time>
      </trkpt>
      <trkpt lat="43.53503" lon="6.28313">
        <ele>390.4</ele>
        <time>2017-01-04T15:27:53Z</time>
      </trkpt>
      <trkpt lat="43.5351" lon="6.28321">
        <ele>391.2</ele>
        <time>2017-01-04T15:28:03Z</time>
      </trkpt>
      <trkpt lat="43.53517" lon="6.28331">
        <ele>391.3</ele>
        <time>2017-01-04T15:28:11Z</time>
      </trkpt>
      <trkpt lat="43.53524" lon="6.2834">
        <ele>391.3</ele>
        <time>2017-01-04T15:28:18Z</time>
      </trkpt>
      <trkpt lat="43.53532" lon="6.28347">
        <ele>391.7</ele>
        <time>2017-01-04T15:28:27Z</time>
      </trkpt>
      <trkpt lat="43.53539" lon="6.28357">
        <ele>391.8</ele>
        <time>2017-01-04T15:28:37Z</time>
      </trkpt>
      <trkpt lat="43.53546" lon="6.28365">
        <ele>391.7</ele>
        <time>2017-01-04T15:28:45Z</time>
      </trkpt>
      <trkpt lat="43.53551" lon="6.28376">
        <ele>391.7</ele>
        <time>2017-01-04T15:28:54Z</time>
      </trkpt>
      <trkpt lat="43.53556" lon="6.28389">
        <ele>391.6</ele>
        <time>2017-01-04T15:29:05Z</time>
      </trkpt>
      <trkpt lat="43.53561" lon="6.284">
        <ele>391.6</ele>
        <time>2017-01-04T15:29:14Z</time>
      </trkpt>
      <trkpt lat="43.53566" lon="6.28411">
        <ele>392.1</ele>
        <time>2017-01-04T15:29:23Z</time>
      </trkpt>
      <trkpt lat="43.53571" lon="6.28422">
        <ele>392</ele>
        <time>2017-01-04T15:29:32Z</time>
      </trkpt>
      <trkpt lat="43.53575" lon="6.28435">
        <ele>391.8</ele>
        <time>2017-01-04T15:29:42Z</time>
      </trkpt>
      <trkpt lat="43.53578" lon="6.28447">
        <ele>391.6</ele>
        <time>2017-01-04T15:29:49Z</time>
      </trkpt>
      <trkpt lat="43.53583" lon="6.28458">
        <ele>391</ele>
        <time>2017-01-04T15:29:57Z</time>
      </trkpt>
      <trkpt lat="43.53589" lon="6.28468">
        <ele>391.1</ele>
        <time>2017-01-04T15:30:18Z</time>
      </trkpt>
      <trkpt lat="43.53593" lon="6.28479">
        <ele>391.8</ele>
        <time>2017-01-04T15:31:07Z</time>
      </trkpt>
      <trkpt lat="43.53596" lon="6.28491">
        <ele>392.1</ele>
        <time>2017-01-04T15:31:28Z</time>
      </trkpt>
      <trkpt lat="43.53601" lon="6.28502">
        <ele>392</ele>
        <time>2017-01-04T15:31:37Z</time>
      </trkpt>
      <trkpt lat="43.53601" lon="6.28515">
        <ele>391.5</ele>
        <time>2017-01-04T15:31:47Z</time>
      </trkpt>
      <trkpt lat="43.53597" lon="6.28527">
        <ele>390.1</ele>
        <time>2017-01-04T15:32:02Z</time>
      </trkpt>
      <trkpt lat="43.53591" lon="6.28537">
        <ele>388.3</ele>
        <time>2017-01-04T15:32:14Z</time>
      </trkpt>
      <trkpt lat="43.53591" lon="6.28551">
        <ele>385.9</ele>
        <time>2017-01-04T15:32:31Z</time>
      </trkpt>
      <trkpt lat="43.53594" lon="6.28563">
        <ele>383.7</ele>
        <time>2017-01-04T15:32:41Z</time>
      </trkpt>
      <trkpt lat="43.53596" lon="6.28575">
        <ele>382.4</ele>
        <time>2017-01-04T15:32:52Z</time>
      </trkpt>
      <trkpt lat="43.53603" lon="6.28585">
        <ele>380.9</ele>
        <time>2017-01-04T15:33:01Z</time>
      </trkpt>
      <trkpt lat="43.53611" lon="6.28591">
        <ele>380</ele>
        <time>2017-01-04T15:33:09Z</time>
      </trkpt>
      <trkpt lat="43.53619" lon="6.28598">
        <ele>379</ele>
        <time>2017-01-04T15:33:18Z</time>
      </trkpt>
      <trkpt lat="43.53623" lon="6.2861">
        <ele>377.8</ele>
        <time>2017-01-04T15:33:29Z</time>
      </trkpt>
      <trkpt lat="43.53617" lon="6.2862">
        <ele>376.4</ele>
        <time>2017-01-04T15:33:39Z</time>
      </trkpt>
      <trkpt lat="43.53609" lon="6.28625">
        <ele>375.2</ele>
        <time>2017-01-04T15:33:54Z</time>
      </trkpt>
      <trkpt lat="43.53603" lon="6.28635">
        <ele>374.2</ele>
        <time>2017-01-04T15:34:16Z</time>
      </trkpt>
      <trkpt lat="43.53593" lon="6.28638">
        <ele>374</ele>
        <time>2017-01-04T15:34:50Z</time>
      </trkpt>
      <trkpt lat="43.53587" lon="6.28648">
        <ele>373.6</ele>
        <time>2017-01-04T15:35:01Z</time>
      </trkpt>
      <trkpt lat="43.5358" lon="6.28658">
        <ele>373.6</ele>
        <time>2017-01-04T15:35:10Z</time>
      </trkpt>
      <trkpt lat="43.53574" lon="6.28668">
        <ele>373.4</ele>
        <time>2017-01-04T15:35:19Z</time>
      </trkpt>
      <trkpt lat="43.53567" lon="6.28678">
        <ele>372.7</ele>
        <time>2017-01-04T15:35:28Z</time>
      </trkpt>
      <trkpt lat="43.5356" lon="6.28687">
        <ele>372</ele>
        <time>2017-01-04T15:35:37Z</time>
      </trkpt>
      <trkpt lat="43.53551" lon="6.28682">
        <ele>370.5</ele>
        <time>2017-01-04T15:36:02Z</time>
      </trkpt>
      <trkpt lat="43.53544" lon="6.28673">
        <ele>369.7</ele>
        <time>2017-01-04T15:36:17Z</time>
      </trkpt>
      <trkpt lat="43.53537" lon="6.28665">
        <ele>369.2</ele>
        <time>2017-01-04T15:36:29Z</time>
      </trkpt>
      <trkpt lat="43.53529" lon="6.28657">
        <ele>368.3</ele>
        <time>2017-01-04T15:36:39Z</time>
      </trkpt>
      <trkpt lat="43.53522" lon="6.28649">
        <ele>367.1</ele>
        <time>2017-01-04T15:36:49Z</time>
      </trkpt>
      <trkpt lat="43.53514" lon="6.28642">
        <ele>366.2</ele>
        <time>2017-01-04T15:36:58Z</time>
      </trkpt>
      <trkpt lat="43.53506" lon="6.28636">
        <ele>365.3</ele>
        <time>2017-01-04T15:37:08Z</time>
      </trkpt>
      <trkpt lat="43.53497" lon="6.28632">
        <ele>364</ele>
        <time>2017-01-04T15:37:18Z</time>
      </trkpt>
      <trkpt lat="43.53488" lon="6.28634">
        <ele>362.7</ele>
        <time>2017-01-04T15:37:29Z</time>
      </trkpt>
      <trkpt lat="43.53479" lon="6.28638">
        <ele>361.6</ele>
        <time>2017-01-04T15:37:39Z</time>
      </trkpt>
      <trkpt lat="43.5347" lon="6.28641">
        <ele>360.3</ele>
        <time>2017-01-04T15:37:48Z</time>
      </trkpt>
      <trkpt lat="43.53461" lon="6.28646">
        <ele>358.5</ele>
        <time>2017-01-04T15:37:58Z</time>
      </trkpt>
      <trkpt lat="43.53452" lon="6.2865">
        <ele>356.6</ele>
        <time>2017-01-04T15:38:13Z</time>
      </trkpt>
      <trkpt lat="43.53444" lon="6.28655">
        <ele>355.4</ele>
        <time>2017-01-04T15:38:33Z</time>
      </trkpt>
      <trkpt lat="43.53434" lon="6.28658">
        <ele>354.5</ele>
        <time>2017-01-04T15:38:43Z</time>
      </trkpt>
      <trkpt lat="43.53425" lon="6.28662">
        <ele>353.6</ele>
        <time>2017-01-04T15:38:53Z</time>
      </trkpt>
      <trkpt lat="43.53416" lon="6.28668">
        <ele>352.6</ele>
        <time>2017-01-04T15:39:02Z</time>
      </trkpt>
      <trkpt lat="43.53407" lon="6.28674">
        <ele>351.9</ele>
        <time>2017-01-04T15:39:10Z</time>
      </trkpt>
      <trkpt lat="43.53399" lon="6.2868">
        <ele>351.3</ele>
        <time>2017-01-04T15:39:18Z</time>
      </trkpt>
      <trkpt lat="43.5339" lon="6.28686">
        <ele>350.5</ele>
        <time>2017-01-04T15:39:27Z</time>
      </trkpt>
      <trkpt lat="43.53381" lon="6.2869">
        <ele>349.6</ele>
        <time>2017-01-04T15:39:35Z</time>
      </trkpt>
      <trkpt lat="43.53373" lon="6.28693">
        <ele>348.8</ele>
        <time>2017-01-04T15:39:43Z</time>
      </trkpt>
      <trkpt lat="43.53364" lon="6.28697">
        <ele>348.2</ele>
        <time>2017-01-04T15:39:51Z</time>
      </trkpt>
      <trkpt lat="43.53355" lon="6.28702">
        <ele>347.7</ele>
        <time>2017-01-04T15:39:59Z</time>
      </trkpt>
      <trkpt lat="43.53346" lon="6.28707">
        <ele>346.7</ele>
        <time>2017-01-04T15:40:07Z</time>
      </trkpt>
      <trkpt lat="43.53337" lon="6.28712">
        <ele>346.1</ele>
        <time>2017-01-04T15:40:15Z</time>
      </trkpt>
      <trkpt lat="43.53329" lon="6.28716">
        <ele>345.6</ele>
        <time>2017-01-04T15:40:23Z</time>
      </trkpt>
      <trkpt lat="43.5332" lon="6.28722">
        <ele>345.1</ele>
        <time>2017-01-04T15:40:31Z</time>
      </trkpt>
      <trkpt lat="43.53311" lon="6.28727">
        <ele>344.2</ele>
        <time>2017-01-04T15:40:39Z</time>
      </trkpt>
      <trkpt lat="43.53302" lon="6.28733">
        <ele>343.2</ele>
        <time>2017-01-04T15:40:48Z</time>
      </trkpt>
      <trkpt lat="43.53293" lon="6.28736">
        <ele>342.6</ele>
        <time>2017-01-04T15:40:56Z</time>
      </trkpt>
      <trkpt lat="43.53283" lon="6.28736">
        <ele>342.3</ele>
        <time>2017-01-04T15:41:05Z</time>
      </trkpt>
      <trkpt lat="43.53274" lon="6.2873">
        <ele>341.4</ele>
        <time>2017-01-04T15:41:14Z</time>
      </trkpt>
      <trkpt lat="43.53265" lon="6.28725">
        <ele>340.9</ele>
        <time>2017-01-04T15:41:23Z</time>
      </trkpt>
      <trkpt lat="43.53257" lon="6.28718">
        <ele>340.4</ele>
        <time>2017-01-04T15:41:33Z</time>
      </trkpt>
      <trkpt lat="43.53248" lon="6.28712">
        <ele>339.7</ele>
        <time>2017-01-04T15:41:41Z</time>
      </trkpt>
      <trkpt lat="43.53239" lon="6.28706">
        <ele>338.9</ele>
        <time>2017-01-04T15:41:49Z</time>
      </trkpt>
      <trkpt lat="43.53231" lon="6.28699">
        <ele>338.5</ele>
        <time>2017-01-04T15:41:57Z</time>
      </trkpt>
      <trkpt lat="43.53222" lon="6.28693">
        <ele>338.1</ele>
        <time>2017-01-04T15:42:05Z</time>
      </trkpt>
      <trkpt lat="43.53213" lon="6.28688">
        <ele>337.4</ele>
        <time>2017-01-04T15:42:15Z</time>
      </trkpt>
      <trkpt lat="43.53203" lon="6.28686">
        <ele>337</ele>
        <time>2017-01-04T15:42:23Z</time>
      </trkpt>
      <trkpt lat="43.53193" lon="6.28683">
        <ele>336.8</ele>
        <time>2017-01-04T15:42:31Z</time>
      </trkpt>
      <trkpt lat="43.53184" lon="6.28679">
        <ele>336.4</ele>
        <time>2017-01-04T15:42:39Z</time>
      </trkpt>
      <trkpt lat="43.53175" lon="6.28674">
        <ele>336.3</ele>
        <time>2017-01-04T15:42:47Z</time>
      </trkpt>
      <trkpt lat="43.53166" lon="6.28668">
        <ele>335.9</ele>
        <time>2017-01-04T15:42:55Z</time>
      </trkpt>
      <trkpt lat="43.53157" lon="6.28662">
        <ele>335</ele>
        <time>2017-01-04T15:43:03Z</time>
      </trkpt>
      <trkpt lat="43.53148" lon="6.28658">
        <ele>334.3</ele>
        <time>2017-01-04T15:43:11Z</time>
      </trkpt>
      <trkpt lat="43.53138" lon="6.28655">
        <ele>333.7</ele>
        <time>2017-01-04T15:43:19Z</time>
      </trkpt>
      <trkpt lat="43.53129" lon="6.28653">
        <ele>332.9</ele>
        <time>2017-01-04T15:43:27Z</time>
      </trkpt>
      <trkpt lat="43.53119" lon="6.28654">
        <ele>332.3</ele>
        <time>2017-01-04T15:43:37Z</time>
      </trkpt>
      <trkpt lat="43.5311" lon="6.28654">
        <ele>331.8</ele>
        <time>2017-01-04T15:43:46Z</time>
      </trkpt>
      <trkpt lat="43.53101" lon="6.28656">
        <ele>331.2</ele>
        <time>2017-01-04T15:43:54Z</time>
      </trkpt>
      <trkpt lat="43.53092" lon="6.28655">
        <ele>330.7</ele>
        <time>2017-01-04T15:44:03Z</time>
      </trkpt>
      <trkpt lat="43.53084" lon="6.28649">
        <ele>329.8</ele>
        <time>2017-01-04T15:44:12Z</time>
      </trkpt>
      <trkpt lat="43.53075" lon="6.28646">
        <ele>329</ele>
        <time>2017-01-04T15:44:21Z</time>
      </trkpt>
      <trkpt lat="43.53067" lon="6.2864">
        <ele>328.4</ele>
        <time>2017-01-04T15:44:29Z</time>
      </trkpt>
      <trkpt lat="43.53059" lon="6.28633">
        <ele>328.1</ele>
        <time>2017-01-04T15:44:38Z</time>
      </trkpt>
      <trkpt lat="43.5305" lon="6.28627">
        <ele>328.1</ele>
        <time>2017-01-04T15:44:47Z</time>
      </trkpt>
      <trkpt lat="43.53041" lon="6.28623">
        <ele>328.1</ele>
        <time>2017-01-04T15:44:56Z</time>
      </trkpt>
      <trkpt lat="43.53033" lon="6.28618">
        <ele>328</ele>
        <time>2017-01-04T15:45:04Z</time>
      </trkpt>
      <trkpt lat="43.53024" lon="6.28612">
        <ele>327.8</ele>
        <time>2017-01-04T15:45:13Z</time>
      </trkpt>
      <trkpt lat="43.53015" lon="6.28606">
        <ele>327.5</ele>
        <time>2017-01-04T15:45:23Z</time>
      </trkpt>
      <trkpt lat="43.53006" lon="6.28602">
        <ele>327.2</ele>
        <time>2017-01-04T15:45:32Z</time>
      </trkpt>
      <trkpt lat="43.52997" lon="6.286">
        <ele>326.9</ele>
        <time>2017-01-04T15:45:41Z</time>
      </trkpt>
      <trkpt lat="43.52988" lon="6.28598">
        <ele>326.6</ele>
        <time>2017-01-04T15:45:49Z</time>
      </trkpt>
      <trkpt lat="43.52979" lon="6.28597">
        <ele>326.3</ele>
        <time>2017-01-04T15:45:59Z</time>
      </trkpt>
      <trkpt lat="43.52969" lon="6.28597">
        <ele>326</ele>
        <time>2017-01-04T15:46:07Z</time>
      </trkpt>
      <trkpt lat="43.52959" lon="6.28598">
        <ele>325.3</ele>
        <time>2017-01-04T15:46:15Z</time>
      </trkpt>
      <trkpt lat="43.52948" lon="6.28599">
        <ele>324.8</ele>
        <time>2017-01-04T15:46:22Z</time>
      </trkpt>
      <trkpt lat="43.52939" lon="6.286">
        <ele>324.6</ele>
        <time>2017-01-04T15:46:30Z</time>
      </trkpt>
      <trkpt lat="43.5293" lon="6.28602">
        <ele>324.5</ele>
        <time>2017-01-04T15:46:38Z</time>
      </trkpt>
      <trkpt lat="43.52921" lon="6.28604">
        <ele>324</ele>
        <time>2017-01-04T15:46:46Z</time>
      </trkpt>
      <trkpt lat="43.52911" lon="6.28605">
        <ele>323.5</ele>
        <time>2017-01-04T15:46:54Z</time>
      </trkpt>
      <trkpt lat="43.52901" lon="6.28606">
        <ele>323.1</ele>
        <time>2017-01-04T15:47:03Z</time>
      </trkpt>
      <trkpt lat="43.52892" lon="6.28605">
        <ele>322.8</ele>
        <time>2017-01-04T15:47:13Z</time>
      </trkpt>
      <trkpt lat="43.52882" lon="6.28602">
        <ele>322.2</ele>
        <time>2017-01-04T15:47:23Z</time>
      </trkpt>
      <trkpt lat="43.52872" lon="6.28599">
        <ele>321.3</ele>
        <time>2017-01-04T15:47:32Z</time>
      </trkpt>
      <trkpt lat="43.52863" lon="6.28596">
        <ele>320.8</ele>
        <time>2017-01-04T15:47:40Z</time>
      </trkpt>
      <trkpt lat="43.52853" lon="6.28596">
        <ele>320.4</ele>
        <time>2017-01-04T15:47:48Z</time>
      </trkpt>
      <trkpt lat="43.52844" lon="6.28593">
        <ele>320</ele>
        <time>2017-01-04T15:47:55Z</time>
      </trkpt>
      <trkpt lat="43.52836" lon="6.28586">
        <ele>319.5</ele>
        <time>2017-01-04T15:48:04Z</time>
      </trkpt>
      <trkpt lat="43.52828" lon="6.28577">
        <ele>318.6</ele>
        <time>2017-01-04T15:48:14Z</time>
      </trkpt>
      <trkpt lat="43.5282" lon="6.28568">
        <ele>318.2</ele>
        <time>2017-01-04T15:48:22Z</time>
      </trkpt>
      <trkpt lat="43.52814" lon="6.28559">
        <ele>317.9</ele>
        <time>2017-01-04T15:48:30Z</time>
      </trkpt>
      <trkpt lat="43.52808" lon="6.28548">
        <ele>317.5</ele>
        <time>2017-01-04T15:48:38Z</time>
      </trkpt>
      <trkpt lat="43.52801" lon="6.2854">
        <ele>316.9</ele>
        <time>2017-01-04T15:48:45Z</time>
      </trkpt>
      <trkpt lat="43.52794" lon="6.28531">
        <ele>316</ele>
        <time>2017-01-04T15:48:55Z</time>
      </trkpt>
      <trkpt lat="43.52787" lon="6.28523">
        <ele>314.7</ele>
        <time>2017-01-04T15:49:05Z</time>
      </trkpt>
      <trkpt lat="43.52778" lon="6.28515">
        <ele>313.9</ele>
        <time>2017-01-04T15:49:13Z</time>
      </trkpt>
      <trkpt lat="43.5277" lon="6.28509">
        <ele>313.2</ele>
        <time>2017-01-04T15:49:20Z</time>
      </trkpt>
      <trkpt lat="43.52761" lon="6.28502">
        <ele>312.8</ele>
        <time>2017-01-04T15:49:28Z</time>
      </trkpt>
      <trkpt lat="43.52753" lon="6.28495">
        <ele>312.6</ele>
        <time>2017-01-04T15:49:37Z</time>
      </trkpt>
      <trkpt lat="43.52744" lon="6.28488">
        <ele>312.3</ele>
        <time>2017-01-04T15:49:45Z</time>
      </trkpt>
      <trkpt lat="43.52737" lon="6.2848">
        <ele>312.2</ele>
        <time>2017-01-04T15:49:53Z</time>
      </trkpt>
      <trkpt lat="43.52728" lon="6.28473">
        <ele>312.2</ele>
        <time>2017-01-04T15:50:01Z</time>
      </trkpt>
      <trkpt lat="43.5272" lon="6.28467">
        <ele>312.1</ele>
        <time>2017-01-04T15:50:09Z</time>
      </trkpt>
      <trkpt lat="43.52712" lon="6.28461">
        <ele>311.8</ele>
        <time>2017-01-04T15:50:17Z</time>
      </trkpt>
      <trkpt lat="43.52703" lon="6.28455">
        <ele>311.6</ele>
        <time>2017-01-04T15:50:25Z</time>
      </trkpt>
      <trkpt lat="43.52695" lon="6.28449">
        <ele>311.3</ele>
        <time>2017-01-04T15:50:32Z</time>
      </trkpt>
      <trkpt lat="43.52686" lon="6.28443">
        <ele>310.7</ele>
        <time>2017-01-04T15:50:38Z</time>
      </trkpt>
      <trkpt lat="43.52678" lon="6.28437">
        <ele>310.4</ele>
        <time>2017-01-04T15:50:45Z</time>
      </trkpt>
      <trkpt lat="43.52669" lon="6.28431">
        <ele>310.1</ele>
        <time>2017-01-04T15:50:54Z</time>
      </trkpt>
      <trkpt lat="43.5266" lon="6.28426">
        <ele>309.9</ele>
        <time>2017-01-04T15:51:03Z</time>
      </trkpt>
      <trkpt lat="43.52651" lon="6.2842">
        <ele>309.6</ele>
        <time>2017-01-04T15:51:12Z</time>
      </trkpt>
      <trkpt lat="43.52644" lon="6.28412">
        <ele>309</ele>
        <time>2017-01-04T15:51:21Z</time>
      </trkpt>
      <trkpt lat="43.52636" lon="6.28403">
        <ele>308.4</ele>
        <time>2017-01-04T15:51:30Z</time>
      </trkpt>
      <trkpt lat="43.52629" lon="6.28394">
        <ele>308.1</ele>
        <time>2017-01-04T15:51:39Z</time>
      </trkpt>
      <trkpt lat="43.5262" lon="6.28387">
        <ele>307.8</ele>
        <time>2017-01-04T15:51:48Z</time>
      </trkpt>
      <trkpt lat="43.52612" lon="6.28381">
        <ele>307.6</ele>
        <time>2017-01-04T15:51:56Z</time>
      </trkpt>
      <trkpt lat="43.52603" lon="6.28375">
        <ele>306.6</ele>
        <time>2017-01-04T15:52:07Z</time>
      </trkpt>
      <trkpt lat="43.52593" lon="6.28372">
        <ele>306.2</ele>
        <time>2017-01-04T15:52:14Z</time>
      </trkpt>
      <trkpt lat="43.52584" lon="6.28371">
        <ele>306.2</ele>
        <time>2017-01-04T15:52:22Z</time>
      </trkpt>
      <trkpt lat="43.52574" lon="6.28373">
        <ele>306.1</ele>
        <time>2017-01-04T15:52:31Z</time>
      </trkpt>
      <trkpt lat="43.52565" lon="6.28369">
        <ele>306.1</ele>
        <time>2017-01-04T15:52:41Z</time>
      </trkpt>
      <trkpt lat="43.52558" lon="6.28361">
        <ele>305.7</ele>
        <time>2017-01-04T15:52:49Z</time>
      </trkpt>
      <trkpt lat="43.52552" lon="6.28351">
        <ele>305.6</ele>
        <time>2017-01-04T15:52:57Z</time>
      </trkpt>
      <trkpt lat="43.52549" lon="6.28339">
        <ele>305.4</ele>
        <time>2017-01-04T15:53:06Z</time>
      </trkpt>
      <trkpt lat="43.52542" lon="6.2833">
        <ele>304.9</ele>
        <time>2017-01-04T15:53:16Z</time>
      </trkpt>
      <trkpt lat="43.52533" lon="6.28324">
        <ele>304.8</ele>
        <time>2017-01-04T15:53:24Z</time>
      </trkpt>
      <trkpt lat="43.52525" lon="6.28317">
        <ele>304.9</ele>
        <time>2017-01-04T15:53:33Z</time>
      </trkpt>
      <trkpt lat="43.52523" lon="6.28304">
        <ele>304.7</ele>
        <time>2017-01-04T15:53:42Z</time>
      </trkpt>
      <trkpt lat="43.52519" lon="6.28291">
        <ele>304.5</ele>
        <time>2017-01-04T15:53:51Z</time>
      </trkpt>
      <trkpt lat="43.52515" lon="6.2828">
        <ele>304.7</ele>
        <time>2017-01-04T15:54:00Z</time>
      </trkpt>
      <trkpt lat="43.5251" lon="6.28268">
        <ele>304.7</ele>
        <time>2017-01-04T15:54:09Z</time>
      </trkpt>
      <trkpt lat="43.52507" lon="6.28256">
        <ele>304.5</ele>
        <time>2017-01-04T15:54:19Z</time>
      </trkpt>
      <trkpt lat="43.52505" lon="6.2825">
        <ele>304</ele>
        <time>2017-01-04T15:54:50Z</time>
      </trkpt>
    </trkseg>
  </trk>
</gpx>